<?xml version="1.0" encoding="UTF-8" standalone="no" ?>
<gpx xmlns="http://www.topografix.com/GPX/1/1" xmlns:xsi="http://www.w3.org/2001/XMLSchema-instance" xsi:schemaLocation="http://www.topografix.com/GPX/1/1 http://www.topografix.com/GPX/1/1/gpx.xsd" version="1.1" creator="VisuGPX - https://www.visugpx.com">
  <metadata>
    <name>Pic de l'ARRAING et Tuc de SERAU en boucle</name>
    <desc><![CDATA[Belle boucle dont une partie en crête facile.
Pas de difficulté technique si ce n'est l'orientation sur l'itinéraire de descente, un peu "sanglier" hors sentier.
Possibilité de descendre par le GR de pays du tour du Biros si l'on souhaite se simplifier le retour.]]></desc>
  </metadata>
  <trk>
    <name><![CDATA[11-JUIN-17 16:42:59]]></name>
    <trkseg>
      <trkpt lat="42.88433" lon="0.98281">
        <ele>946.07</ele>
        <time>2017-06-11T06:55:50Z</time>
      </trkpt>
      <trkpt lat="42.88436" lon="0.98275">
        <ele>946.56</ele>
        <time>2017-06-11T06:58:57Z</time>
      </trkpt>
      <trkpt lat="42.88442" lon="0.98273">
        <ele>950.88</ele>
        <time>2017-06-11T06:59:17Z</time>
      </trkpt>
      <trkpt lat="42.88453" lon="0.98274">
        <ele>955.21</ele>
        <time>2017-06-11T06:59:42Z</time>
      </trkpt>
      <trkpt lat="42.88456" lon="0.98254">
        <ele>957.61</ele>
        <time>2017-06-11T06:59:59Z</time>
      </trkpt>
      <trkpt lat="42.88461" lon="0.98238">
        <ele>960.01</ele>
        <time>2017-06-11T07:00:14Z</time>
      </trkpt>
      <trkpt lat="42.88466" lon="0.98226">
        <ele>962.9</ele>
        <time>2017-06-11T07:00:29Z</time>
      </trkpt>
      <trkpt lat="42.88474" lon="0.98215">
        <ele>965.78</ele>
        <time>2017-06-11T07:00:47Z</time>
      </trkpt>
      <trkpt lat="42.88485" lon="0.98205">
        <ele>969.63</ele>
        <time>2017-06-11T07:01:11Z</time>
      </trkpt>
      <trkpt lat="42.88495" lon="0.98193">
        <ele>972.99</ele>
        <time>2017-06-11T07:01:33Z</time>
      </trkpt>
      <trkpt lat="42.88505" lon="0.98179">
        <ele>976.84</ele>
        <time>2017-06-11T07:01:55Z</time>
      </trkpt>
      <trkpt lat="42.88512" lon="0.98164">
        <ele>980.2</ele>
        <time>2017-06-11T07:02:20Z</time>
      </trkpt>
      <trkpt lat="42.88517" lon="0.98176">
        <ele>983.09</ele>
        <time>2017-06-11T07:02:48Z</time>
      </trkpt>
      <trkpt lat="42.88519" lon="0.98199">
        <ele>987.41</ele>
        <time>2017-06-11T07:03:19Z</time>
      </trkpt>
      <trkpt lat="42.88527" lon="0.98215">
        <ele>990.78</ele>
        <time>2017-06-11T07:03:43Z</time>
      </trkpt>
      <trkpt lat="42.88541" lon="0.98223">
        <ele>993.66</ele>
        <time>2017-06-11T07:04:08Z</time>
      </trkpt>
      <trkpt lat="42.88565" lon="0.98226">
        <ele>997.51</ele>
        <time>2017-06-11T07:04:39Z</time>
      </trkpt>
      <trkpt lat="42.88599" lon="0.98214">
        <ele>1005.2</ele>
        <time>2017-06-11T07:05:36Z</time>
      </trkpt>
      <trkpt lat="42.88613" lon="0.98198">
        <ele>1010.48</ele>
        <time>2017-06-11T07:06:11Z</time>
      </trkpt>
      <trkpt lat="42.88628" lon="0.98194">
        <ele>1015.77</ele>
        <time>2017-06-11T07:06:41Z</time>
      </trkpt>
      <trkpt lat="42.8865" lon="0.98185">
        <ele>1021.54</ele>
        <time>2017-06-11T07:07:21Z</time>
      </trkpt>
      <trkpt lat="42.88669" lon="0.98182">
        <ele>1026.83</ele>
        <time>2017-06-11T07:07:57Z</time>
      </trkpt>
      <trkpt lat="42.88698" lon="0.98175">
        <ele>1035.48</ele>
        <time>2017-06-11T07:08:50Z</time>
      </trkpt>
      <trkpt lat="42.88715" lon="0.98168">
        <ele>1040.76</ele>
        <time>2017-06-11T07:09:24Z</time>
      </trkpt>
      <trkpt lat="42.88736" lon="0.9817">
        <ele>1050.38</ele>
        <time>2017-06-11T07:10:23Z</time>
      </trkpt>
      <trkpt lat="42.88742" lon="0.98148">
        <ele>1055.18</ele>
        <time>2017-06-11T07:10:57Z</time>
      </trkpt>
      <trkpt lat="42.88746" lon="0.98133">
        <ele>1058.07</ele>
        <time>2017-06-11T07:11:15Z</time>
      </trkpt>
      <trkpt lat="42.8875" lon="0.98108">
        <ele>1060.95</ele>
        <time>2017-06-11T07:11:36Z</time>
      </trkpt>
      <trkpt lat="42.88753" lon="0.98088">
        <ele>1063.36</ele>
        <time>2017-06-11T07:11:59Z</time>
      </trkpt>
      <trkpt lat="42.88746" lon="0.98066">
        <ele>1065.28</ele>
        <time>2017-06-11T07:12:21Z</time>
      </trkpt>
      <trkpt lat="42.88739" lon="0.98043">
        <ele>1066.24</ele>
        <time>2017-06-11T07:12:38Z</time>
      </trkpt>
      <trkpt lat="42.88737" lon="0.97998">
        <ele>1070.08</ele>
        <time>2017-06-11T07:13:12Z</time>
      </trkpt>
      <trkpt lat="42.88736" lon="0.9798">
        <ele>1072.97</ele>
        <time>2017-06-11T07:13:40Z</time>
      </trkpt>
      <trkpt lat="42.88732" lon="0.97957">
        <ele>1077.29</ele>
        <time>2017-06-11T07:14:09Z</time>
      </trkpt>
      <trkpt lat="42.88737" lon="0.97937">
        <ele>1081.62</ele>
        <time>2017-06-11T07:14:39Z</time>
      </trkpt>
      <trkpt lat="42.88736" lon="0.97907">
        <ele>1086.91</ele>
        <time>2017-06-11T07:15:14Z</time>
      </trkpt>
      <trkpt lat="42.88736" lon="0.97878">
        <ele>1092.2</ele>
        <time>2017-06-11T07:15:51Z</time>
      </trkpt>
      <trkpt lat="42.88742" lon="0.97853">
        <ele>1098.44</ele>
        <time>2017-06-11T07:16:30Z</time>
      </trkpt>
      <trkpt lat="42.88755" lon="0.97837">
        <ele>1102.29</ele>
        <time>2017-06-11T07:16:56Z</time>
      </trkpt>
      <trkpt lat="42.88748" lon="0.97799">
        <ele>1109.5</ele>
        <time>2017-06-11T07:17:53Z</time>
      </trkpt>
      <trkpt lat="42.88747" lon="0.97771">
        <ele>1116.71</ele>
        <time>2017-06-11T07:18:42Z</time>
      </trkpt>
      <trkpt lat="42.8876" lon="0.97748">
        <ele>1123.44</ele>
        <time>2017-06-11T07:19:25Z</time>
      </trkpt>
      <trkpt lat="42.88764" lon="0.97716">
        <ele>1127.76</ele>
        <time>2017-06-11T07:19:58Z</time>
      </trkpt>
      <trkpt lat="42.88774" lon="0.97697">
        <ele>1133.05</ele>
        <time>2017-06-11T07:20:30Z</time>
      </trkpt>
      <trkpt lat="42.88784" lon="0.97674">
        <ele>1138.82</ele>
        <time>2017-06-11T07:21:19Z</time>
      </trkpt>
      <trkpt lat="42.88793" lon="0.97654">
        <ele>1144.11</ele>
        <time>2017-06-11T07:21:57Z</time>
      </trkpt>
      <trkpt lat="42.88804" lon="0.9763">
        <ele>1150.84</ele>
        <time>2017-06-11T07:22:43Z</time>
      </trkpt>
      <trkpt lat="42.88816" lon="0.97603">
        <ele>1156.12</ele>
        <time>2017-06-11T07:23:27Z</time>
      </trkpt>
      <trkpt lat="42.88823" lon="0.97591">
        <ele>1160.45</ele>
        <time>2017-06-11T07:25:41Z</time>
      </trkpt>
      <trkpt lat="42.88836" lon="0.97574">
        <ele>1165.74</ele>
        <time>2017-06-11T07:26:13Z</time>
      </trkpt>
      <trkpt lat="42.88846" lon="0.97548">
        <ele>1169.58</ele>
        <time>2017-06-11T07:26:47Z</time>
      </trkpt>
      <trkpt lat="42.88852" lon="0.97528">
        <ele>1173.91</ele>
        <time>2017-06-11T07:27:18Z</time>
      </trkpt>
      <trkpt lat="42.88864" lon="0.97504">
        <ele>1179.19</ele>
        <time>2017-06-11T07:28:00Z</time>
      </trkpt>
      <trkpt lat="42.88873" lon="0.9748">
        <ele>1183.04</ele>
        <time>2017-06-11T07:28:35Z</time>
      </trkpt>
      <trkpt lat="42.8889" lon="0.97475">
        <ele>1186.88</ele>
        <time>2017-06-11T07:29:13Z</time>
      </trkpt>
      <trkpt lat="42.8891" lon="0.97487">
        <ele>1192.17</ele>
        <time>2017-06-11T07:31:46Z</time>
      </trkpt>
      <trkpt lat="42.88923" lon="0.97501">
        <ele>1196.5</ele>
        <time>2017-06-11T07:32:21Z</time>
      </trkpt>
      <trkpt lat="42.88936" lon="0.97506">
        <ele>1200.82</ele>
        <time>2017-06-11T07:33:06Z</time>
      </trkpt>
      <trkpt lat="42.8895" lon="0.97509">
        <ele>1203.23</ele>
        <time>2017-06-11T07:33:24Z</time>
      </trkpt>
      <trkpt lat="42.88962" lon="0.97509">
        <ele>1205.15</ele>
        <time>2017-06-11T07:33:55Z</time>
      </trkpt>
      <trkpt lat="42.88973" lon="0.97511">
        <ele>1208.03</ele>
        <time>2017-06-11T07:34:14Z</time>
      </trkpt>
      <trkpt lat="42.88985" lon="0.9751">
        <ele>1211.88</ele>
        <time>2017-06-11T07:34:35Z</time>
      </trkpt>
      <trkpt lat="42.88989" lon="0.97515">
        <ele>1215.24</ele>
        <time>2017-06-11T07:35:01Z</time>
      </trkpt>
      <trkpt lat="42.88986" lon="0.97531">
        <ele>1218.13</ele>
        <time>2017-06-11T07:35:20Z</time>
      </trkpt>
      <trkpt lat="42.88981" lon="0.97548">
        <ele>1221.49</ele>
        <time>2017-06-11T07:35:49Z</time>
      </trkpt>
      <trkpt lat="42.88977" lon="0.97561">
        <ele>1224.38</ele>
        <time>2017-06-11T07:36:13Z</time>
      </trkpt>
      <trkpt lat="42.8897" lon="0.97571">
        <ele>1226.3</ele>
        <time>2017-06-11T07:36:29Z</time>
      </trkpt>
      <trkpt lat="42.88965" lon="0.9758">
        <ele>1228.7</ele>
        <time>2017-06-11T07:36:45Z</time>
      </trkpt>
      <trkpt lat="42.88969" lon="0.97592">
        <ele>1229.66</ele>
        <time>2017-06-11T07:37:03Z</time>
      </trkpt>
      <trkpt lat="42.88975" lon="0.97602">
        <ele>1231.59</ele>
        <time>2017-06-11T07:37:19Z</time>
      </trkpt>
      <trkpt lat="42.88977" lon="0.97612">
        <ele>1233.03</ele>
        <time>2017-06-11T07:37:44Z</time>
      </trkpt>
      <trkpt lat="42.88984" lon="0.97623">
        <ele>1234.95</ele>
        <time>2017-06-11T07:37:58Z</time>
      </trkpt>
      <trkpt lat="42.88989" lon="0.97634">
        <ele>1235.91</ele>
        <time>2017-06-11T07:38:12Z</time>
      </trkpt>
      <trkpt lat="42.88992" lon="0.97644">
        <ele>1237.35</ele>
        <time>2017-06-11T07:38:26Z</time>
      </trkpt>
      <trkpt lat="42.88997" lon="0.97656">
        <ele>1239.28</ele>
        <time>2017-06-11T07:38:41Z</time>
      </trkpt>
      <trkpt lat="42.89003" lon="0.97666">
        <ele>1240.72</ele>
        <time>2017-06-11T07:38:55Z</time>
      </trkpt>
      <trkpt lat="42.89007" lon="0.97678">
        <ele>1242.64</ele>
        <time>2017-06-11T07:39:08Z</time>
      </trkpt>
      <trkpt lat="42.89012" lon="0.97689">
        <ele>1244.08</ele>
        <time>2017-06-11T07:39:25Z</time>
      </trkpt>
      <trkpt lat="42.89015" lon="0.97701">
        <ele>1245.53</ele>
        <time>2017-06-11T07:39:41Z</time>
      </trkpt>
      <trkpt lat="42.89018" lon="0.97713">
        <ele>1246.01</ele>
        <time>2017-06-11T07:39:56Z</time>
      </trkpt>
      <trkpt lat="42.89024" lon="0.97725">
        <ele>1247.93</ele>
        <time>2017-06-11T07:40:12Z</time>
      </trkpt>
      <trkpt lat="42.89028" lon="0.97737">
        <ele>1249.37</ele>
        <time>2017-06-11T07:40:30Z</time>
      </trkpt>
      <trkpt lat="42.89035" lon="0.97746">
        <ele>1250.81</ele>
        <time>2017-06-11T07:40:47Z</time>
      </trkpt>
      <trkpt lat="42.8904" lon="0.97757">
        <ele>1252.25</ele>
        <time>2017-06-11T07:41:01Z</time>
      </trkpt>
      <trkpt lat="42.89046" lon="0.97767">
        <ele>1253.22</ele>
        <time>2017-06-11T07:41:15Z</time>
      </trkpt>
      <trkpt lat="42.89051" lon="0.97779">
        <ele>1254.66</ele>
        <time>2017-06-11T07:41:29Z</time>
      </trkpt>
      <trkpt lat="42.89056" lon="0.97789">
        <ele>1256.1</ele>
        <time>2017-06-11T07:41:44Z</time>
      </trkpt>
      <trkpt lat="42.8906" lon="0.978">
        <ele>1257.54</ele>
        <time>2017-06-11T07:42:00Z</time>
      </trkpt>
      <trkpt lat="42.89063" lon="0.97812">
        <ele>1259.94</ele>
        <time>2017-06-11T07:42:31Z</time>
      </trkpt>
      <trkpt lat="42.89068" lon="0.97823">
        <ele>1261.39</ele>
        <time>2017-06-11T07:42:47Z</time>
      </trkpt>
      <trkpt lat="42.89074" lon="0.97834">
        <ele>1264.27</ele>
        <time>2017-06-11T07:43:03Z</time>
      </trkpt>
      <trkpt lat="42.89082" lon="0.97842">
        <ele>1266.19</ele>
        <time>2017-06-11T07:43:19Z</time>
      </trkpt>
      <trkpt lat="42.8909" lon="0.9785">
        <ele>1268.6</ele>
        <time>2017-06-11T07:43:38Z</time>
      </trkpt>
      <trkpt lat="42.89098" lon="0.97857">
        <ele>1271</ele>
        <time>2017-06-11T07:43:57Z</time>
      </trkpt>
      <trkpt lat="42.89105" lon="0.97866">
        <ele>1273.4</ele>
        <time>2017-06-11T07:44:15Z</time>
      </trkpt>
      <trkpt lat="42.89109" lon="0.97874">
        <ele>1274.85</ele>
        <time>2017-06-11T07:44:53Z</time>
      </trkpt>
      <trkpt lat="42.89118" lon="0.97885">
        <ele>1278.21</ele>
        <time>2017-06-11T07:45:12Z</time>
      </trkpt>
      <trkpt lat="42.89124" lon="0.97893">
        <ele>1279.65</ele>
        <time>2017-06-11T07:45:27Z</time>
      </trkpt>
      <trkpt lat="42.89129" lon="0.97906">
        <ele>1282.06</ele>
        <time>2017-06-11T07:45:46Z</time>
      </trkpt>
      <trkpt lat="42.89134" lon="0.97917">
        <ele>1284.46</ele>
        <time>2017-06-11T07:46:02Z</time>
      </trkpt>
      <trkpt lat="42.89136" lon="0.97929">
        <ele>1287.34</ele>
        <time>2017-06-11T07:46:20Z</time>
      </trkpt>
      <trkpt lat="42.89144" lon="0.97936">
        <ele>1289.27</ele>
        <time>2017-06-11T07:46:35Z</time>
      </trkpt>
      <trkpt lat="42.89148" lon="0.97945">
        <ele>1291.19</ele>
        <time>2017-06-11T07:47:08Z</time>
      </trkpt>
      <trkpt lat="42.89155" lon="0.97957">
        <ele>1293.11</ele>
        <time>2017-06-11T07:47:23Z</time>
      </trkpt>
      <trkpt lat="42.89163" lon="0.97967">
        <ele>1295.99</ele>
        <time>2017-06-11T07:47:52Z</time>
      </trkpt>
      <trkpt lat="42.89169" lon="0.97977">
        <ele>1297.92</ele>
        <time>2017-06-11T07:48:07Z</time>
      </trkpt>
      <trkpt lat="42.89174" lon="0.97987">
        <ele>1300.32</ele>
        <time>2017-06-11T07:48:22Z</time>
      </trkpt>
      <trkpt lat="42.89181" lon="0.97997">
        <ele>1302.72</ele>
        <time>2017-06-11T07:48:38Z</time>
      </trkpt>
      <trkpt lat="42.89186" lon="0.98008">
        <ele>1304.65</ele>
        <time>2017-06-11T07:48:53Z</time>
      </trkpt>
      <trkpt lat="42.89193" lon="0.98017">
        <ele>1306.57</ele>
        <time>2017-06-11T07:49:09Z</time>
      </trkpt>
      <trkpt lat="42.89199" lon="0.98025">
        <ele>1308.97</ele>
        <time>2017-06-11T07:49:24Z</time>
      </trkpt>
      <trkpt lat="42.89204" lon="0.98035">
        <ele>1310.9</ele>
        <time>2017-06-11T07:49:41Z</time>
      </trkpt>
      <trkpt lat="42.89214" lon="0.98042">
        <ele>1313.3</ele>
        <time>2017-06-11T07:49:59Z</time>
      </trkpt>
      <trkpt lat="42.89222" lon="0.9805">
        <ele>1315.22</ele>
        <time>2017-06-11T07:50:20Z</time>
      </trkpt>
      <trkpt lat="42.89229" lon="0.98057">
        <ele>1317.14</ele>
        <time>2017-06-11T07:50:36Z</time>
      </trkpt>
      <trkpt lat="42.89237" lon="0.98064">
        <ele>1319.07</ele>
        <time>2017-06-11T07:50:55Z</time>
      </trkpt>
      <trkpt lat="42.89246" lon="0.9807">
        <ele>1321.47</ele>
        <time>2017-06-11T07:51:17Z</time>
      </trkpt>
      <trkpt lat="42.89255" lon="0.9807">
        <ele>1322.91</ele>
        <time>2017-06-11T07:51:40Z</time>
      </trkpt>
      <trkpt lat="42.8926" lon="0.9808">
        <ele>1325.31</ele>
        <time>2017-06-11T07:51:58Z</time>
      </trkpt>
      <trkpt lat="42.89265" lon="0.9809">
        <ele>1326.76</ele>
        <time>2017-06-11T07:52:22Z</time>
      </trkpt>
      <trkpt lat="42.89271" lon="0.98099">
        <ele>1328.68</ele>
        <time>2017-06-11T07:52:44Z</time>
      </trkpt>
      <trkpt lat="42.89276" lon="0.9811">
        <ele>1330.6</ele>
        <time>2017-06-11T07:53:01Z</time>
      </trkpt>
      <trkpt lat="42.89281" lon="0.9812">
        <ele>1332.04</ele>
        <time>2017-06-11T07:53:21Z</time>
      </trkpt>
      <trkpt lat="42.89289" lon="0.98128">
        <ele>1333.97</ele>
        <time>2017-06-11T07:53:39Z</time>
      </trkpt>
      <trkpt lat="42.89295" lon="0.98138">
        <ele>1335.41</ele>
        <time>2017-06-11T07:53:57Z</time>
      </trkpt>
      <trkpt lat="42.89305" lon="0.98139">
        <ele>1336.37</ele>
        <time>2017-06-11T07:54:10Z</time>
      </trkpt>
      <trkpt lat="42.89311" lon="0.98136">
        <ele>1337.81</ele>
        <time>2017-06-11T07:54:28Z</time>
      </trkpt>
      <trkpt lat="42.89319" lon="0.98129">
        <ele>1337.81</ele>
        <time>2017-06-11T07:54:41Z</time>
      </trkpt>
      <trkpt lat="42.89328" lon="0.98133">
        <ele>1339.25</ele>
        <time>2017-06-11T07:54:56Z</time>
      </trkpt>
      <trkpt lat="42.89338" lon="0.98136">
        <ele>1340.7</ele>
        <time>2017-06-11T07:55:10Z</time>
      </trkpt>
      <trkpt lat="42.89347" lon="0.98136">
        <ele>1343.1</ele>
        <time>2017-06-11T07:55:28Z</time>
      </trkpt>
      <trkpt lat="42.89354" lon="0.98138">
        <ele>1344.06</ele>
        <time>2017-06-11T07:55:47Z</time>
      </trkpt>
      <trkpt lat="42.89365" lon="0.98137">
        <ele>1347.91</ele>
        <time>2017-06-11T07:56:11Z</time>
      </trkpt>
      <trkpt lat="42.89369" lon="0.98131">
        <ele>1349.83</ele>
        <time>2017-06-11T08:02:15Z</time>
      </trkpt>
      <trkpt lat="42.89368" lon="0.98118">
        <ele>1350.79</ele>
        <time>2017-06-11T08:02:36Z</time>
      </trkpt>
      <trkpt lat="42.89369" lon="0.98105">
        <ele>1352.23</ele>
        <time>2017-06-11T08:02:56Z</time>
      </trkpt>
      <trkpt lat="42.89368" lon="0.98093">
        <ele>1353.19</ele>
        <time>2017-06-11T08:03:09Z</time>
      </trkpt>
      <trkpt lat="42.8937" lon="0.98082">
        <ele>1354.15</ele>
        <time>2017-06-11T08:03:24Z</time>
      </trkpt>
      <trkpt lat="42.89375" lon="0.98071">
        <ele>1356.56</ele>
        <time>2017-06-11T08:03:40Z</time>
      </trkpt>
      <trkpt lat="42.8938" lon="0.98061">
        <ele>1358.48</ele>
        <time>2017-06-11T08:03:58Z</time>
      </trkpt>
      <trkpt lat="42.89381" lon="0.98047">
        <ele>1360.4</ele>
        <time>2017-06-11T08:04:19Z</time>
      </trkpt>
      <trkpt lat="42.89386" lon="0.98036">
        <ele>1362.33</ele>
        <time>2017-06-11T08:04:37Z</time>
      </trkpt>
      <trkpt lat="42.89388" lon="0.98025">
        <ele>1364.25</ele>
        <time>2017-06-11T08:04:54Z</time>
      </trkpt>
      <trkpt lat="42.89389" lon="0.98013">
        <ele>1365.69</ele>
        <time>2017-06-11T08:05:08Z</time>
      </trkpt>
      <trkpt lat="42.89391" lon="0.98002">
        <ele>1368.09</ele>
        <time>2017-06-11T08:05:22Z</time>
      </trkpt>
      <trkpt lat="42.89393" lon="0.97989">
        <ele>1370.02</ele>
        <time>2017-06-11T08:05:38Z</time>
      </trkpt>
      <trkpt lat="42.89396" lon="0.97979">
        <ele>1371.94</ele>
        <time>2017-06-11T08:05:53Z</time>
      </trkpt>
      <trkpt lat="42.89397" lon="0.97965">
        <ele>1373.38</ele>
        <time>2017-06-11T08:06:11Z</time>
      </trkpt>
      <trkpt lat="42.89396" lon="0.97953">
        <ele>1375.78</ele>
        <time>2017-06-11T08:06:27Z</time>
      </trkpt>
      <trkpt lat="42.894" lon="0.97942">
        <ele>1378.19</ele>
        <time>2017-06-11T08:06:53Z</time>
      </trkpt>
      <trkpt lat="42.89403" lon="0.97932">
        <ele>1380.11</ele>
        <time>2017-06-11T08:07:18Z</time>
      </trkpt>
      <trkpt lat="42.89411" lon="0.97926">
        <ele>1383.47</ele>
        <time>2017-06-11T08:07:45Z</time>
      </trkpt>
      <trkpt lat="42.89414" lon="0.97918">
        <ele>1387.32</ele>
        <time>2017-06-11T08:08:16Z</time>
      </trkpt>
      <trkpt lat="42.89426" lon="0.97919">
        <ele>1389.72</ele>
        <time>2017-06-11T08:08:41Z</time>
      </trkpt>
      <trkpt lat="42.8942" lon="0.97906">
        <ele>1392.13</ele>
        <time>2017-06-11T08:09:01Z</time>
      </trkpt>
      <trkpt lat="42.89421" lon="0.97896">
        <ele>1393.57</ele>
        <time>2017-06-11T08:09:24Z</time>
      </trkpt>
      <trkpt lat="42.89425" lon="0.97885">
        <ele>1396.93</ele>
        <time>2017-06-11T08:09:49Z</time>
      </trkpt>
      <trkpt lat="42.89424" lon="0.97876">
        <ele>1398.86</ele>
        <time>2017-06-11T08:10:15Z</time>
      </trkpt>
      <trkpt lat="42.89423" lon="0.97862">
        <ele>1401.26</ele>
        <time>2017-06-11T08:10:35Z</time>
      </trkpt>
      <trkpt lat="42.89424" lon="0.97849">
        <ele>1402.7</ele>
        <time>2017-06-11T08:10:54Z</time>
      </trkpt>
      <trkpt lat="42.89422" lon="0.9784">
        <ele>1405.58</ele>
        <time>2017-06-11T08:11:17Z</time>
      </trkpt>
      <trkpt lat="42.89422" lon="0.97828">
        <ele>1407.99</ele>
        <time>2017-06-11T08:11:38Z</time>
      </trkpt>
      <trkpt lat="42.89423" lon="0.97815">
        <ele>1410.87</ele>
        <time>2017-06-11T08:12:02Z</time>
      </trkpt>
      <trkpt lat="42.89423" lon="0.97802">
        <ele>1413.28</ele>
        <time>2017-06-11T08:12:27Z</time>
      </trkpt>
      <trkpt lat="42.89424" lon="0.97791">
        <ele>1415.2</ele>
        <time>2017-06-11T08:12:44Z</time>
      </trkpt>
      <trkpt lat="42.89425" lon="0.97778">
        <ele>1417.6</ele>
        <time>2017-06-11T08:13:02Z</time>
      </trkpt>
      <trkpt lat="42.89425" lon="0.97768">
        <ele>1420.49</ele>
        <time>2017-06-11T08:13:33Z</time>
      </trkpt>
      <trkpt lat="42.89428" lon="0.97755">
        <ele>1422.89</ele>
        <time>2017-06-11T08:13:57Z</time>
      </trkpt>
      <trkpt lat="42.89435" lon="0.97745">
        <ele>1426.25</ele>
        <time>2017-06-11T08:14:31Z</time>
      </trkpt>
      <trkpt lat="42.8944" lon="0.97737">
        <ele>1429.62</ele>
        <time>2017-06-11T08:14:55Z</time>
      </trkpt>
      <trkpt lat="42.89447" lon="0.97727">
        <ele>1432.02</ele>
        <time>2017-06-11T08:15:16Z</time>
      </trkpt>
      <trkpt lat="42.89453" lon="0.97722">
        <ele>1434.91</ele>
        <time>2017-06-11T08:16:12Z</time>
      </trkpt>
      <trkpt lat="42.8946" lon="0.97711">
        <ele>1437.79</ele>
        <time>2017-06-11T08:16:36Z</time>
      </trkpt>
      <trkpt lat="42.89466" lon="0.97705">
        <ele>1440.19</ele>
        <time>2017-06-11T08:16:58Z</time>
      </trkpt>
      <trkpt lat="42.89473" lon="0.977">
        <ele>1443.08</ele>
        <time>2017-06-11T08:17:24Z</time>
      </trkpt>
      <trkpt lat="42.89474" lon="0.97689">
        <ele>1444.52</ele>
        <time>2017-06-11T08:17:42Z</time>
      </trkpt>
      <trkpt lat="42.89482" lon="0.97679">
        <ele>1446.92</ele>
        <time>2017-06-11T08:18:09Z</time>
      </trkpt>
      <trkpt lat="42.89488" lon="0.97669">
        <ele>1451.25</ele>
        <time>2017-06-11T08:18:39Z</time>
      </trkpt>
      <trkpt lat="42.89493" lon="0.97658">
        <ele>1454.61</ele>
        <time>2017-06-11T08:19:21Z</time>
      </trkpt>
      <trkpt lat="42.89498" lon="0.97647">
        <ele>1457.5</ele>
        <time>2017-06-11T08:19:46Z</time>
      </trkpt>
      <trkpt lat="42.89501" lon="0.97636">
        <ele>1461.82</ele>
        <time>2017-06-11T08:20:12Z</time>
      </trkpt>
      <trkpt lat="42.89504" lon="0.97625">
        <ele>1463.26</ele>
        <time>2017-06-11T08:20:39Z</time>
      </trkpt>
      <trkpt lat="42.89505" lon="0.97612">
        <ele>1467.11</ele>
        <time>2017-06-11T08:21:11Z</time>
      </trkpt>
      <trkpt lat="42.89507" lon="0.97598">
        <ele>1470.95</ele>
        <time>2017-06-11T08:21:39Z</time>
      </trkpt>
      <trkpt lat="42.89507" lon="0.97587">
        <ele>1475.28</ele>
        <time>2017-06-11T08:22:30Z</time>
      </trkpt>
      <trkpt lat="42.89507" lon="0.97572">
        <ele>1477.2</ele>
        <time>2017-06-11T08:22:57Z</time>
      </trkpt>
      <trkpt lat="42.89507" lon="0.9756">
        <ele>1481.05</ele>
        <time>2017-06-11T08:23:58Z</time>
      </trkpt>
      <trkpt lat="42.89504" lon="0.97547">
        <ele>1483.45</ele>
        <time>2017-06-11T08:24:28Z</time>
      </trkpt>
      <trkpt lat="42.89501" lon="0.97534">
        <ele>1485.37</ele>
        <time>2017-06-11T08:25:00Z</time>
      </trkpt>
      <trkpt lat="42.89499" lon="0.97522">
        <ele>1488.26</ele>
        <time>2017-06-11T08:25:25Z</time>
      </trkpt>
      <trkpt lat="42.89499" lon="0.97506">
        <ele>1491.14</ele>
        <time>2017-06-11T08:26:01Z</time>
      </trkpt>
      <trkpt lat="42.89501" lon="0.97499">
        <ele>1495.47</ele>
        <time>2017-06-11T08:27:02Z</time>
      </trkpt>
      <trkpt lat="42.89503" lon="0.9749">
        <ele>1497.39</ele>
        <time>2017-06-11T08:27:36Z</time>
      </trkpt>
      <trkpt lat="42.89504" lon="0.97478">
        <ele>1502.2</ele>
        <time>2017-06-11T08:29:20Z</time>
      </trkpt>
      <trkpt lat="42.89514" lon="0.97474">
        <ele>1508.45</ele>
        <time>2017-06-11T08:30:14Z</time>
      </trkpt>
      <trkpt lat="42.89518" lon="0.97463">
        <ele>1512.77</ele>
        <time>2017-06-11T08:31:22Z</time>
      </trkpt>
      <trkpt lat="42.89519" lon="0.97454">
        <ele>1515.18</ele>
        <time>2017-06-11T08:32:24Z</time>
      </trkpt>
      <trkpt lat="42.89522" lon="0.97442">
        <ele>1518.54</ele>
        <time>2017-06-11T08:32:44Z</time>
      </trkpt>
      <trkpt lat="42.89524" lon="0.97428">
        <ele>1520.94</ele>
        <time>2017-06-11T08:33:06Z</time>
      </trkpt>
      <trkpt lat="42.89532" lon="0.9742">
        <ele>1526.71</ele>
        <time>2017-06-11T08:35:18Z</time>
      </trkpt>
      <trkpt lat="42.89531" lon="0.97407">
        <ele>1530.08</ele>
        <time>2017-06-11T08:36:27Z</time>
      </trkpt>
      <trkpt lat="42.89539" lon="0.97397">
        <ele>1531.52</ele>
        <time>2017-06-11T08:36:58Z</time>
      </trkpt>
      <trkpt lat="42.89546" lon="0.97389">
        <ele>1536.32</ele>
        <time>2017-06-11T08:37:25Z</time>
      </trkpt>
      <trkpt lat="42.89548" lon="0.97403">
        <ele>1539.69</ele>
        <time>2017-06-11T08:37:49Z</time>
      </trkpt>
      <trkpt lat="42.89555" lon="0.97391">
        <ele>1543.05</ele>
        <time>2017-06-11T08:38:18Z</time>
      </trkpt>
      <trkpt lat="42.89558" lon="0.97401">
        <ele>1546.9</ele>
        <time>2017-06-11T08:39:05Z</time>
      </trkpt>
      <trkpt lat="42.89564" lon="0.97408">
        <ele>1550.26</ele>
        <time>2017-06-11T08:39:36Z</time>
      </trkpt>
      <trkpt lat="42.89571" lon="0.97403">
        <ele>1554.59</ele>
        <time>2017-06-11T08:40:36Z</time>
      </trkpt>
      <trkpt lat="42.89579" lon="0.97393">
        <ele>1558.43</ele>
        <time>2017-06-11T08:41:09Z</time>
      </trkpt>
      <trkpt lat="42.89585" lon="0.97383">
        <ele>1561.8</ele>
        <time>2017-06-11T08:41:40Z</time>
      </trkpt>
      <trkpt lat="42.89582" lon="0.97384">
        <ele>1562.28</ele>
        <time>2017-06-11T08:43:38Z</time>
      </trkpt>
      <trkpt lat="42.89589" lon="0.97375">
        <ele>1565.16</ele>
        <time>2017-06-11T08:44:49Z</time>
      </trkpt>
      <trkpt lat="42.89599" lon="0.97371">
        <ele>1568.53</ele>
        <time>2017-06-11T08:45:10Z</time>
      </trkpt>
      <trkpt lat="42.89605" lon="0.97374">
        <ele>1572.85</ele>
        <time>2017-06-11T08:45:48Z</time>
      </trkpt>
      <trkpt lat="42.89607" lon="0.97383">
        <ele>1575.74</ele>
        <time>2017-06-11T08:46:15Z</time>
      </trkpt>
      <trkpt lat="42.89615" lon="0.97381">
        <ele>1579.1</ele>
        <time>2017-06-11T08:47:01Z</time>
      </trkpt>
      <trkpt lat="42.89622" lon="0.97386">
        <ele>1583.43</ele>
        <time>2017-06-11T08:47:36Z</time>
      </trkpt>
      <trkpt lat="42.89632" lon="0.97385">
        <ele>1587.27</ele>
        <time>2017-06-11T08:48:16Z</time>
      </trkpt>
      <trkpt lat="42.89632" lon="0.97398">
        <ele>1590.64</ele>
        <time>2017-06-11T08:48:52Z</time>
      </trkpt>
      <trkpt lat="42.89637" lon="0.974">
        <ele>1593.04</ele>
        <time>2017-06-11T08:49:21Z</time>
      </trkpt>
      <trkpt lat="42.89642" lon="0.97409">
        <ele>1595.93</ele>
        <time>2017-06-11T08:50:31Z</time>
      </trkpt>
      <trkpt lat="42.89652" lon="0.9741">
        <ele>1599.77</ele>
        <time>2017-06-11T08:50:55Z</time>
      </trkpt>
      <trkpt lat="42.89653" lon="0.97422">
        <ele>1603.62</ele>
        <time>2017-06-11T08:51:25Z</time>
      </trkpt>
      <trkpt lat="42.89657" lon="0.97434">
        <ele>1606.5</ele>
        <time>2017-06-11T08:51:51Z</time>
      </trkpt>
      <trkpt lat="42.89666" lon="0.97432">
        <ele>1608.9</ele>
        <time>2017-06-11T08:52:08Z</time>
      </trkpt>
      <trkpt lat="42.89671" lon="0.97437">
        <ele>1611.31</ele>
        <time>2017-06-11T08:52:30Z</time>
      </trkpt>
      <trkpt lat="42.89674" lon="0.97448">
        <ele>1614.19</ele>
        <time>2017-06-11T08:53:04Z</time>
      </trkpt>
      <trkpt lat="42.89684" lon="0.97444">
        <ele>1616.11</ele>
        <time>2017-06-11T08:53:27Z</time>
      </trkpt>
      <trkpt lat="42.89694" lon="0.97445">
        <ele>1618.04</ele>
        <time>2017-06-11T08:53:50Z</time>
      </trkpt>
      <trkpt lat="42.89703" lon="0.97445">
        <ele>1620.92</ele>
        <time>2017-06-11T08:54:21Z</time>
      </trkpt>
      <trkpt lat="42.89705" lon="0.97457">
        <ele>1625.73</ele>
        <time>2017-06-11T08:55:17Z</time>
      </trkpt>
      <trkpt lat="42.89716" lon="0.97458">
        <ele>1629.09</ele>
        <time>2017-06-11T08:55:46Z</time>
      </trkpt>
      <trkpt lat="42.89726" lon="0.97463">
        <ele>1631.98</ele>
        <time>2017-06-11T08:56:08Z</time>
      </trkpt>
      <trkpt lat="42.89733" lon="0.9747">
        <ele>1635.34</ele>
        <time>2017-06-11T08:56:31Z</time>
      </trkpt>
      <trkpt lat="42.89736" lon="0.97481">
        <ele>1638.22</ele>
        <time>2017-06-11T08:57:12Z</time>
      </trkpt>
      <trkpt lat="42.89742" lon="0.9749">
        <ele>1640.63</ele>
        <time>2017-06-11T08:57:31Z</time>
      </trkpt>
      <trkpt lat="42.8975" lon="0.9749">
        <ele>1642.55</ele>
        <time>2017-06-11T08:57:51Z</time>
      </trkpt>
      <trkpt lat="42.89759" lon="0.97492">
        <ele>1645.91</ele>
        <time>2017-06-11T08:58:10Z</time>
      </trkpt>
      <trkpt lat="42.89765" lon="0.97498">
        <ele>1649.76</ele>
        <time>2017-06-11T08:58:43Z</time>
      </trkpt>
      <trkpt lat="42.89769" lon="0.97506">
        <ele>1650.72</ele>
        <time>2017-06-11T08:59:29Z</time>
      </trkpt>
      <trkpt lat="42.89778" lon="0.97504">
        <ele>1653.6</ele>
        <time>2017-06-11T08:59:53Z</time>
      </trkpt>
      <trkpt lat="42.89787" lon="0.97507">
        <ele>1656.01</ele>
        <time>2017-06-11T09:00:15Z</time>
      </trkpt>
      <trkpt lat="42.89796" lon="0.97507">
        <ele>1658.89</ele>
        <time>2017-06-11T09:10:14Z</time>
      </trkpt>
      <trkpt lat="42.89797" lon="0.97496">
        <ele>1658.89</ele>
        <time>2017-06-11T09:10:29Z</time>
      </trkpt>
      <trkpt lat="42.89802" lon="0.97488">
        <ele>1657.93</ele>
        <time>2017-06-11T09:11:14Z</time>
      </trkpt>
      <trkpt lat="42.8981" lon="0.97481">
        <ele>1654.57</ele>
        <time>2017-06-11T09:11:33Z</time>
      </trkpt>
      <trkpt lat="42.89811" lon="0.9747">
        <ele>1650.72</ele>
        <time>2017-06-11T09:11:51Z</time>
      </trkpt>
      <trkpt lat="42.89816" lon="0.97458">
        <ele>1646.4</ele>
        <time>2017-06-11T09:12:09Z</time>
      </trkpt>
      <trkpt lat="42.89819" lon="0.97443">
        <ele>1643.03</ele>
        <time>2017-06-11T09:12:35Z</time>
      </trkpt>
      <trkpt lat="42.89814" lon="0.97431">
        <ele>1638.22</ele>
        <time>2017-06-11T09:12:55Z</time>
      </trkpt>
      <trkpt lat="42.89818" lon="0.97417">
        <ele>1634.38</ele>
        <time>2017-06-11T09:13:14Z</time>
      </trkpt>
      <trkpt lat="42.89824" lon="0.97403">
        <ele>1630.05</ele>
        <time>2017-06-11T09:13:36Z</time>
      </trkpt>
      <trkpt lat="42.89833" lon="0.97383">
        <ele>1624.28</ele>
        <time>2017-06-11T09:14:03Z</time>
      </trkpt>
      <trkpt lat="42.89842" lon="0.97371">
        <ele>1621.4</ele>
        <time>2017-06-11T09:14:17Z</time>
      </trkpt>
      <trkpt lat="42.89848" lon="0.97361">
        <ele>1620.92</ele>
        <time>2017-06-11T09:14:28Z</time>
      </trkpt>
      <trkpt lat="42.8985" lon="0.97347">
        <ele>1619.96</ele>
        <time>2017-06-11T09:14:39Z</time>
      </trkpt>
      <trkpt lat="42.89856" lon="0.97335">
        <ele>1618.04</ele>
        <time>2017-06-11T09:14:50Z</time>
      </trkpt>
      <trkpt lat="42.89863" lon="0.97324">
        <ele>1616.59</ele>
        <time>2017-06-11T09:15:03Z</time>
      </trkpt>
      <trkpt lat="42.89869" lon="0.97306">
        <ele>1612.75</ele>
        <time>2017-06-11T09:15:17Z</time>
      </trkpt>
      <trkpt lat="42.89875" lon="0.97289">
        <ele>1609.38</ele>
        <time>2017-06-11T09:15:31Z</time>
      </trkpt>
      <trkpt lat="42.89882" lon="0.97277">
        <ele>1606.98</ele>
        <time>2017-06-11T09:15:42Z</time>
      </trkpt>
      <trkpt lat="42.89886" lon="0.97264">
        <ele>1607.94</ele>
        <time>2017-06-11T09:15:52Z</time>
      </trkpt>
      <trkpt lat="42.8989" lon="0.97251">
        <ele>1608.42</ele>
        <time>2017-06-11T09:16:02Z</time>
      </trkpt>
      <trkpt lat="42.89895" lon="0.97237">
        <ele>1608.9</ele>
        <time>2017-06-11T09:16:12Z</time>
      </trkpt>
      <trkpt lat="42.89899" lon="0.97223">
        <ele>1607.94</ele>
        <time>2017-06-11T09:16:22Z</time>
      </trkpt>
      <trkpt lat="42.89904" lon="0.9721">
        <ele>1606.98</ele>
        <time>2017-06-11T09:16:30Z</time>
      </trkpt>
      <trkpt lat="42.89905" lon="0.97195">
        <ele>1606.5</ele>
        <time>2017-06-11T09:16:38Z</time>
      </trkpt>
      <trkpt lat="42.8991" lon="0.97184">
        <ele>1606.5</ele>
        <time>2017-06-11T09:16:48Z</time>
      </trkpt>
      <trkpt lat="42.89917" lon="0.9717">
        <ele>1605.54</ele>
        <time>2017-06-11T09:16:59Z</time>
      </trkpt>
      <trkpt lat="42.89922" lon="0.97152">
        <ele>1604.58</ele>
        <time>2017-06-11T09:17:11Z</time>
      </trkpt>
      <trkpt lat="42.89924" lon="0.97134">
        <ele>1603.14</ele>
        <time>2017-06-11T09:17:26Z</time>
      </trkpt>
      <trkpt lat="42.8993" lon="0.97117">
        <ele>1601.21</ele>
        <time>2017-06-11T09:17:42Z</time>
      </trkpt>
      <trkpt lat="42.89937" lon="0.97104">
        <ele>1600.25</ele>
        <time>2017-06-11T09:17:53Z</time>
      </trkpt>
      <trkpt lat="42.89943" lon="0.97085">
        <ele>1599.77</ele>
        <time>2017-06-11T09:18:04Z</time>
      </trkpt>
      <trkpt lat="42.89946" lon="0.97072">
        <ele>1599.77</ele>
        <time>2017-06-11T09:18:12Z</time>
      </trkpt>
      <trkpt lat="42.8995" lon="0.97059">
        <ele>1598.81</ele>
        <time>2017-06-11T09:18:22Z</time>
      </trkpt>
      <trkpt lat="42.89951" lon="0.97045">
        <ele>1598.33</ele>
        <time>2017-06-11T09:18:31Z</time>
      </trkpt>
      <trkpt lat="42.89957" lon="0.97033">
        <ele>1597.37</ele>
        <time>2017-06-11T09:18:41Z</time>
      </trkpt>
      <trkpt lat="42.8996" lon="0.9702">
        <ele>1595.45</ele>
        <time>2017-06-11T09:18:50Z</time>
      </trkpt>
      <trkpt lat="42.89961" lon="0.97007">
        <ele>1596.41</ele>
        <time>2017-06-11T09:19:01Z</time>
      </trkpt>
      <trkpt lat="42.89959" lon="0.96986">
        <ele>1599.77</ele>
        <time>2017-06-11T09:19:30Z</time>
      </trkpt>
      <trkpt lat="42.89959" lon="0.96967">
        <ele>1603.14</ele>
        <time>2017-06-11T09:19:53Z</time>
      </trkpt>
      <trkpt lat="42.89963" lon="0.96952">
        <ele>1606.02</ele>
        <time>2017-06-11T09:20:15Z</time>
      </trkpt>
      <trkpt lat="42.89966" lon="0.96931">
        <ele>1607.46</ele>
        <time>2017-06-11T09:20:36Z</time>
      </trkpt>
      <trkpt lat="42.8997" lon="0.96907">
        <ele>1608.9</ele>
        <time>2017-06-11T09:20:59Z</time>
      </trkpt>
      <trkpt lat="42.89972" lon="0.96887">
        <ele>1609.38</ele>
        <time>2017-06-11T09:21:17Z</time>
      </trkpt>
      <trkpt lat="42.8997" lon="0.96868">
        <ele>1608.42</ele>
        <time>2017-06-11T09:21:31Z</time>
      </trkpt>
      <trkpt lat="42.89975" lon="0.9685">
        <ele>1609.38</ele>
        <time>2017-06-11T09:21:51Z</time>
      </trkpt>
      <trkpt lat="42.89977" lon="0.9682">
        <ele>1607.94</ele>
        <time>2017-06-11T09:22:20Z</time>
      </trkpt>
      <trkpt lat="42.89983" lon="0.96802">
        <ele>1608.42</ele>
        <time>2017-06-11T09:22:42Z</time>
      </trkpt>
      <trkpt lat="42.8999" lon="0.96783">
        <ele>1610.35</ele>
        <time>2017-06-11T09:23:04Z</time>
      </trkpt>
      <trkpt lat="42.89991" lon="0.96761">
        <ele>1612.27</ele>
        <time>2017-06-11T09:23:22Z</time>
      </trkpt>
      <trkpt lat="42.89995" lon="0.96745">
        <ele>1613.23</ele>
        <time>2017-06-11T09:23:35Z</time>
      </trkpt>
      <trkpt lat="42.89999" lon="0.96729">
        <ele>1615.63</ele>
        <time>2017-06-11T09:23:55Z</time>
      </trkpt>
      <trkpt lat="42.90006" lon="0.96711">
        <ele>1619</ele>
        <time>2017-06-11T09:25:06Z</time>
      </trkpt>
      <trkpt lat="42.90013" lon="0.96695">
        <ele>1623.8</ele>
        <time>2017-06-11T09:25:42Z</time>
      </trkpt>
      <trkpt lat="42.90015" lon="0.96674">
        <ele>1627.17</ele>
        <time>2017-06-11T09:26:12Z</time>
      </trkpt>
      <trkpt lat="42.90015" lon="0.96656">
        <ele>1628.13</ele>
        <time>2017-06-11T09:26:30Z</time>
      </trkpt>
      <trkpt lat="42.90016" lon="0.96644">
        <ele>1629.57</ele>
        <time>2017-06-11T09:26:45Z</time>
      </trkpt>
      <trkpt lat="42.90016" lon="0.96633">
        <ele>1631.49</ele>
        <time>2017-06-11T09:27:01Z</time>
      </trkpt>
      <trkpt lat="42.90025" lon="0.96635">
        <ele>1634.38</ele>
        <time>2017-06-11T09:27:53Z</time>
      </trkpt>
      <trkpt lat="42.90021" lon="0.96615">
        <ele>1637.26</ele>
        <time>2017-06-11T09:28:22Z</time>
      </trkpt>
      <trkpt lat="42.90016" lon="0.96596">
        <ele>1638.22</ele>
        <time>2017-06-11T09:28:47Z</time>
      </trkpt>
      <trkpt lat="42.90014" lon="0.96581">
        <ele>1637.74</ele>
        <time>2017-06-11T09:29:08Z</time>
      </trkpt>
      <trkpt lat="42.90016" lon="0.9657">
        <ele>1640.63</ele>
        <time>2017-06-11T09:29:38Z</time>
      </trkpt>
      <trkpt lat="42.90022" lon="0.96559">
        <ele>1644.47</ele>
        <time>2017-06-11T09:30:43Z</time>
      </trkpt>
      <trkpt lat="42.90028" lon="0.96547">
        <ele>1650.24</ele>
        <time>2017-06-11T09:31:45Z</time>
      </trkpt>
      <trkpt lat="42.90028" lon="0.96534">
        <ele>1655.05</ele>
        <time>2017-06-11T09:32:39Z</time>
      </trkpt>
      <trkpt lat="42.90033" lon="0.96523">
        <ele>1656.49</ele>
        <time>2017-06-11T09:34:18Z</time>
      </trkpt>
      <trkpt lat="42.90023" lon="0.96536">
        <ele>1656.97</ele>
        <time>2017-06-11T09:35:25Z</time>
      </trkpt>
      <trkpt lat="42.90024" lon="0.96521">
        <ele>1663.22</ele>
        <time>2017-06-11T09:39:26Z</time>
      </trkpt>
      <trkpt lat="42.90028" lon="0.96509">
        <ele>1667.06</ele>
        <time>2017-06-11T09:40:22Z</time>
      </trkpt>
      <trkpt lat="42.90031" lon="0.96493">
        <ele>1669.47</ele>
        <time>2017-06-11T09:40:43Z</time>
      </trkpt>
      <trkpt lat="42.90028" lon="0.96479">
        <ele>1670.43</ele>
        <time>2017-06-11T09:41:10Z</time>
      </trkpt>
      <trkpt lat="42.90024" lon="0.96466">
        <ele>1670.43</ele>
        <time>2017-06-11T09:42:42Z</time>
      </trkpt>
      <trkpt lat="42.90023" lon="0.96452">
        <ele>1670.91</ele>
        <time>2017-06-11T09:43:05Z</time>
      </trkpt>
      <trkpt lat="42.90017" lon="0.9644">
        <ele>1672.35</ele>
        <time>2017-06-11T09:43:30Z</time>
      </trkpt>
      <trkpt lat="42.90012" lon="0.9643">
        <ele>1669.95</ele>
        <time>2017-06-11T09:44:28Z</time>
      </trkpt>
      <trkpt lat="42.90005" lon="0.96415">
        <ele>1669.95</ele>
        <time>2017-06-11T09:44:56Z</time>
      </trkpt>
      <trkpt lat="42.90002" lon="0.96401">
        <ele>1670.91</ele>
        <time>2017-06-11T09:45:14Z</time>
      </trkpt>
      <trkpt lat="42.89996" lon="0.96391">
        <ele>1670.91</ele>
        <time>2017-06-11T09:45:28Z</time>
      </trkpt>
      <trkpt lat="42.89994" lon="0.96387">
        <ele>1668.02</ele>
        <time>2017-06-11T09:45:48Z</time>
      </trkpt>
      <trkpt lat="42.8999" lon="0.96374">
        <ele>1665.14</ele>
        <time>2017-06-11T09:46:37Z</time>
      </trkpt>
      <trkpt lat="42.89989" lon="0.9636">
        <ele>1663.7</ele>
        <time>2017-06-11T09:46:57Z</time>
      </trkpt>
      <trkpt lat="42.89986" lon="0.96342">
        <ele>1662.74</ele>
        <time>2017-06-11T09:47:51Z</time>
      </trkpt>
      <trkpt lat="42.89984" lon="0.96326">
        <ele>1665.14</ele>
        <time>2017-06-11T09:48:46Z</time>
      </trkpt>
      <trkpt lat="42.8998" lon="0.96315">
        <ele>1663.7</ele>
        <time>2017-06-11T09:49:13Z</time>
      </trkpt>
      <trkpt lat="42.89976" lon="0.96303">
        <ele>1662.26</ele>
        <time>2017-06-11T09:49:30Z</time>
      </trkpt>
      <trkpt lat="42.89974" lon="0.96289">
        <ele>1660.33</ele>
        <time>2017-06-11T09:49:52Z</time>
      </trkpt>
      <trkpt lat="42.89973" lon="0.96276">
        <ele>1658.41</ele>
        <time>2017-06-11T09:50:06Z</time>
      </trkpt>
      <trkpt lat="42.89968" lon="0.96263">
        <ele>1656.97</ele>
        <time>2017-06-11T09:50:20Z</time>
      </trkpt>
      <trkpt lat="42.89965" lon="0.96252">
        <ele>1656.01</ele>
        <time>2017-06-11T09:50:44Z</time>
      </trkpt>
      <trkpt lat="42.89964" lon="0.96238">
        <ele>1655.53</ele>
        <time>2017-06-11T09:51:05Z</time>
      </trkpt>
      <trkpt lat="42.89959" lon="0.96228">
        <ele>1654.57</ele>
        <time>2017-06-11T09:51:20Z</time>
      </trkpt>
      <trkpt lat="42.89955" lon="0.96216">
        <ele>1652.64</ele>
        <time>2017-06-11T09:51:36Z</time>
      </trkpt>
      <trkpt lat="42.89957" lon="0.96204">
        <ele>1653.6</ele>
        <time>2017-06-11T09:51:50Z</time>
      </trkpt>
      <trkpt lat="42.89953" lon="0.96193">
        <ele>1651.2</ele>
        <time>2017-06-11T09:52:06Z</time>
      </trkpt>
      <trkpt lat="42.89954" lon="0.96179">
        <ele>1650.72</ele>
        <time>2017-06-11T09:52:20Z</time>
      </trkpt>
      <trkpt lat="42.89953" lon="0.96164">
        <ele>1649.28</ele>
        <time>2017-06-11T09:52:36Z</time>
      </trkpt>
      <trkpt lat="42.89951" lon="0.96149">
        <ele>1648.8</ele>
        <time>2017-06-11T09:52:51Z</time>
      </trkpt>
      <trkpt lat="42.89952" lon="0.96135">
        <ele>1647.84</ele>
        <time>2017-06-11T09:53:04Z</time>
      </trkpt>
      <trkpt lat="42.89951" lon="0.96119">
        <ele>1650.24</ele>
        <time>2017-06-11T09:53:22Z</time>
      </trkpt>
      <trkpt lat="42.8995" lon="0.96106">
        <ele>1652.16</ele>
        <time>2017-06-11T09:53:45Z</time>
      </trkpt>
      <trkpt lat="42.8995" lon="0.96093">
        <ele>1652.64</ele>
        <time>2017-06-11T09:54:00Z</time>
      </trkpt>
      <trkpt lat="42.89949" lon="0.96077">
        <ele>1652.64</ele>
        <time>2017-06-11T09:54:38Z</time>
      </trkpt>
      <trkpt lat="42.89951" lon="0.96063">
        <ele>1652.16</ele>
        <time>2017-06-11T09:54:50Z</time>
      </trkpt>
      <trkpt lat="42.89952" lon="0.96048">
        <ele>1652.64</ele>
        <time>2017-06-11T09:55:08Z</time>
      </trkpt>
      <trkpt lat="42.89955" lon="0.96036">
        <ele>1652.16</ele>
        <time>2017-06-11T09:55:32Z</time>
      </trkpt>
      <trkpt lat="42.89956" lon="0.96022">
        <ele>1651.2</ele>
        <time>2017-06-11T09:55:46Z</time>
      </trkpt>
      <trkpt lat="42.89958" lon="0.96008">
        <ele>1649.76</ele>
        <time>2017-06-11T09:55:59Z</time>
      </trkpt>
      <trkpt lat="42.89959" lon="0.95996">
        <ele>1648.32</ele>
        <time>2017-06-11T09:56:16Z</time>
      </trkpt>
      <trkpt lat="42.89963" lon="0.95983">
        <ele>1645.91</ele>
        <time>2017-06-11T09:56:30Z</time>
      </trkpt>
      <trkpt lat="42.89963" lon="0.95968">
        <ele>1645.43</ele>
        <time>2017-06-11T09:56:43Z</time>
      </trkpt>
      <trkpt lat="42.89962" lon="0.95956">
        <ele>1643.99</ele>
        <time>2017-06-11T09:56:54Z</time>
      </trkpt>
      <trkpt lat="42.89964" lon="0.95944">
        <ele>1642.07</ele>
        <time>2017-06-11T09:57:06Z</time>
      </trkpt>
      <trkpt lat="42.89966" lon="0.95931">
        <ele>1640.63</ele>
        <time>2017-06-11T09:57:18Z</time>
      </trkpt>
      <trkpt lat="42.89963" lon="0.9592">
        <ele>1639.19</ele>
        <time>2017-06-11T09:57:33Z</time>
      </trkpt>
      <trkpt lat="42.89962" lon="0.95908">
        <ele>1635.82</ele>
        <time>2017-06-11T09:57:46Z</time>
      </trkpt>
      <trkpt lat="42.89965" lon="0.95895">
        <ele>1634.38</ele>
        <time>2017-06-11T09:58:03Z</time>
      </trkpt>
      <trkpt lat="42.89963" lon="0.95882">
        <ele>1632.94</ele>
        <time>2017-06-11T09:58:16Z</time>
      </trkpt>
      <trkpt lat="42.89968" lon="0.95871">
        <ele>1629.57</ele>
        <time>2017-06-11T09:58:49Z</time>
      </trkpt>
      <trkpt lat="42.8997" lon="0.95857">
        <ele>1627.17</ele>
        <time>2017-06-11T09:59:12Z</time>
      </trkpt>
      <trkpt lat="42.89967" lon="0.95844">
        <ele>1625.25</ele>
        <time>2017-06-11T09:59:24Z</time>
      </trkpt>
      <trkpt lat="42.89964" lon="0.95831">
        <ele>1622.84</ele>
        <time>2017-06-11T09:59:43Z</time>
      </trkpt>
      <trkpt lat="42.89964" lon="0.95818">
        <ele>1621.4</ele>
        <time>2017-06-11T10:00:00Z</time>
      </trkpt>
      <trkpt lat="42.89966" lon="0.95805">
        <ele>1619.48</ele>
        <time>2017-06-11T10:00:20Z</time>
      </trkpt>
      <trkpt lat="42.89966" lon="0.95792">
        <ele>1619.96</ele>
        <time>2017-06-11T10:00:30Z</time>
      </trkpt>
      <trkpt lat="42.89968" lon="0.95779">
        <ele>1619.48</ele>
        <time>2017-06-11T10:00:40Z</time>
      </trkpt>
      <trkpt lat="42.89969" lon="0.95766">
        <ele>1618.04</ele>
        <time>2017-06-11T10:00:52Z</time>
      </trkpt>
      <trkpt lat="42.89968" lon="0.95752">
        <ele>1616.11</ele>
        <time>2017-06-11T10:01:03Z</time>
      </trkpt>
      <trkpt lat="42.89967" lon="0.95738">
        <ele>1615.63</ele>
        <time>2017-06-11T10:01:15Z</time>
      </trkpt>
      <trkpt lat="42.89965" lon="0.95724">
        <ele>1615.63</ele>
        <time>2017-06-11T10:01:28Z</time>
      </trkpt>
      <trkpt lat="42.89964" lon="0.9571">
        <ele>1617.56</ele>
        <time>2017-06-11T10:01:41Z</time>
      </trkpt>
      <trkpt lat="42.8996" lon="0.95698">
        <ele>1619.48</ele>
        <time>2017-06-11T10:01:57Z</time>
      </trkpt>
      <trkpt lat="42.89962" lon="0.95685">
        <ele>1620.92</ele>
        <time>2017-06-11T10:02:18Z</time>
      </trkpt>
      <trkpt lat="42.89962" lon="0.95677">
        <ele>1621.4</ele>
        <time>2017-06-11T10:03:23Z</time>
      </trkpt>
      <trkpt lat="42.89963" lon="0.95662">
        <ele>1623.8</ele>
        <time>2017-06-11T10:03:41Z</time>
      </trkpt>
      <trkpt lat="42.89962" lon="0.95649">
        <ele>1626.21</ele>
        <time>2017-06-11T10:03:58Z</time>
      </trkpt>
      <trkpt lat="42.89959" lon="0.95637">
        <ele>1624.28</ele>
        <time>2017-06-11T10:04:26Z</time>
      </trkpt>
      <trkpt lat="42.89963" lon="0.95625">
        <ele>1625.25</ele>
        <time>2017-06-11T10:07:23Z</time>
      </trkpt>
      <trkpt lat="42.8996" lon="0.95619">
        <ele>1625.25</ele>
        <time>2017-06-11T10:14:40Z</time>
      </trkpt>
      <trkpt lat="42.89958" lon="0.95604">
        <ele>1626.69</ele>
        <time>2017-06-11T10:14:57Z</time>
      </trkpt>
      <trkpt lat="42.89957" lon="0.95589">
        <ele>1628.61</ele>
        <time>2017-06-11T10:15:17Z</time>
      </trkpt>
      <trkpt lat="42.89955" lon="0.95574">
        <ele>1629.09</ele>
        <time>2017-06-11T10:15:34Z</time>
      </trkpt>
      <trkpt lat="42.89953" lon="0.95561">
        <ele>1631.98</ele>
        <time>2017-06-11T10:15:59Z</time>
      </trkpt>
      <trkpt lat="42.89953" lon="0.95543">
        <ele>1631.49</ele>
        <time>2017-06-11T10:16:18Z</time>
      </trkpt>
      <trkpt lat="42.89949" lon="0.95531">
        <ele>1632.46</ele>
        <time>2017-06-11T10:16:32Z</time>
      </trkpt>
      <trkpt lat="42.89951" lon="0.95519">
        <ele>1635.34</ele>
        <time>2017-06-11T10:17:01Z</time>
      </trkpt>
      <trkpt lat="42.89953" lon="0.95511">
        <ele>1638.22</ele>
        <time>2017-06-11T10:18:37Z</time>
      </trkpt>
      <trkpt lat="42.89953" lon="0.95497">
        <ele>1642.55</ele>
        <time>2017-06-11T10:19:10Z</time>
      </trkpt>
      <trkpt lat="42.89953" lon="0.95483">
        <ele>1642.07</ele>
        <time>2017-06-11T10:19:29Z</time>
      </trkpt>
      <trkpt lat="42.8995" lon="0.95469">
        <ele>1640.63</ele>
        <time>2017-06-11T10:19:49Z</time>
      </trkpt>
      <trkpt lat="42.89949" lon="0.95454">
        <ele>1641.59</ele>
        <time>2017-06-11T10:20:07Z</time>
      </trkpt>
      <trkpt lat="42.89949" lon="0.95441">
        <ele>1641.59</ele>
        <time>2017-06-11T10:20:24Z</time>
      </trkpt>
      <trkpt lat="42.89948" lon="0.95425">
        <ele>1641.11</ele>
        <time>2017-06-11T10:20:43Z</time>
      </trkpt>
      <trkpt lat="42.89952" lon="0.95413">
        <ele>1640.15</ele>
        <time>2017-06-11T10:20:57Z</time>
      </trkpt>
      <trkpt lat="42.89951" lon="0.95397">
        <ele>1643.03</ele>
        <time>2017-06-11T10:21:20Z</time>
      </trkpt>
      <trkpt lat="42.89954" lon="0.95383">
        <ele>1643.99</ele>
        <time>2017-06-11T10:21:35Z</time>
      </trkpt>
      <trkpt lat="42.89955" lon="0.9537">
        <ele>1643.99</ele>
        <time>2017-06-11T10:21:49Z</time>
      </trkpt>
      <trkpt lat="42.89956" lon="0.95354">
        <ele>1643.51</ele>
        <time>2017-06-11T10:22:03Z</time>
      </trkpt>
      <trkpt lat="42.89958" lon="0.95339">
        <ele>1644.95</ele>
        <time>2017-06-11T10:22:22Z</time>
      </trkpt>
      <trkpt lat="42.89962" lon="0.95322">
        <ele>1647.36</ele>
        <time>2017-06-11T10:22:47Z</time>
      </trkpt>
      <trkpt lat="42.89967" lon="0.9531">
        <ele>1649.28</ele>
        <time>2017-06-11T10:23:08Z</time>
      </trkpt>
      <trkpt lat="42.89968" lon="0.95301">
        <ele>1652.64</ele>
        <time>2017-06-11T10:23:41Z</time>
      </trkpt>
      <trkpt lat="42.89971" lon="0.95287">
        <ele>1656.01</ele>
        <time>2017-06-11T10:24:11Z</time>
      </trkpt>
      <trkpt lat="42.89971" lon="0.95275">
        <ele>1658.89</ele>
        <time>2017-06-11T10:24:42Z</time>
      </trkpt>
      <trkpt lat="42.89971" lon="0.95262">
        <ele>1662.74</ele>
        <time>2017-06-11T10:25:16Z</time>
      </trkpt>
      <trkpt lat="42.89973" lon="0.95251">
        <ele>1665.62</ele>
        <time>2017-06-11T10:25:44Z</time>
      </trkpt>
      <trkpt lat="42.89971" lon="0.95235">
        <ele>1667.06</ele>
        <time>2017-06-11T10:26:16Z</time>
      </trkpt>
      <trkpt lat="42.89968" lon="0.95219">
        <ele>1665.14</ele>
        <time>2017-06-11T10:26:51Z</time>
      </trkpt>
      <trkpt lat="42.89973" lon="0.9521">
        <ele>1666.58</ele>
        <time>2017-06-11T10:29:04Z</time>
      </trkpt>
      <trkpt lat="42.89968" lon="0.95197">
        <ele>1668.99</ele>
        <time>2017-06-11T10:29:23Z</time>
      </trkpt>
      <trkpt lat="42.8997" lon="0.95186">
        <ele>1671.39</ele>
        <time>2017-06-11T10:29:44Z</time>
      </trkpt>
      <trkpt lat="42.89972" lon="0.95177">
        <ele>1674.75</ele>
        <time>2017-06-11T10:30:06Z</time>
      </trkpt>
      <trkpt lat="42.89973" lon="0.95164">
        <ele>1676.68</ele>
        <time>2017-06-11T10:30:32Z</time>
      </trkpt>
      <trkpt lat="42.89977" lon="0.95151">
        <ele>1681</ele>
        <time>2017-06-11T10:31:10Z</time>
      </trkpt>
      <trkpt lat="42.89981" lon="0.95137">
        <ele>1684.37</ele>
        <time>2017-06-11T10:31:55Z</time>
      </trkpt>
      <trkpt lat="42.89984" lon="0.95124">
        <ele>1690.14</ele>
        <time>2017-06-11T10:32:44Z</time>
      </trkpt>
      <trkpt lat="42.89991" lon="0.95112">
        <ele>1694.46</ele>
        <time>2017-06-11T10:33:34Z</time>
      </trkpt>
      <trkpt lat="42.8999" lon="0.95101">
        <ele>1696.86</ele>
        <time>2017-06-11T10:34:39Z</time>
      </trkpt>
      <trkpt lat="42.89992" lon="0.95091">
        <ele>1699.75</ele>
        <time>2017-06-11T10:34:58Z</time>
      </trkpt>
      <trkpt lat="42.89995" lon="0.95098">
        <ele>1699.27</ele>
        <time>2017-06-11T10:35:37Z</time>
      </trkpt>
      <trkpt lat="42.89995" lon="0.95087">
        <ele>1700.71</ele>
        <time>2017-06-11T10:36:34Z</time>
      </trkpt>
      <trkpt lat="42.89997" lon="0.95075">
        <ele>1702.63</ele>
        <time>2017-06-11T10:37:01Z</time>
      </trkpt>
      <trkpt lat="42.89997" lon="0.95063">
        <ele>1702.63</ele>
        <time>2017-06-11T10:37:17Z</time>
      </trkpt>
      <trkpt lat="42.89993" lon="0.95054">
        <ele>1699.75</ele>
        <time>2017-06-11T10:37:34Z</time>
      </trkpt>
      <trkpt lat="42.8999" lon="0.95042">
        <ele>1697.83</ele>
        <time>2017-06-11T10:37:50Z</time>
      </trkpt>
      <trkpt lat="42.89987" lon="0.9503">
        <ele>1696.38</ele>
        <time>2017-06-11T10:38:04Z</time>
      </trkpt>
      <trkpt lat="42.89981" lon="0.95021">
        <ele>1694.46</ele>
        <time>2017-06-11T10:38:17Z</time>
      </trkpt>
      <trkpt lat="42.89979" lon="0.95008">
        <ele>1693.98</ele>
        <time>2017-06-11T10:38:30Z</time>
      </trkpt>
      <trkpt lat="42.89977" lon="0.94995">
        <ele>1693.98</ele>
        <time>2017-06-11T10:38:43Z</time>
      </trkpt>
      <trkpt lat="42.89976" lon="0.94983">
        <ele>1691.58</ele>
        <time>2017-06-11T10:38:55Z</time>
      </trkpt>
      <trkpt lat="42.89974" lon="0.94969">
        <ele>1691.58</ele>
        <time>2017-06-11T10:39:05Z</time>
      </trkpt>
      <trkpt lat="42.89973" lon="0.94957">
        <ele>1691.1</ele>
        <time>2017-06-11T10:39:15Z</time>
      </trkpt>
      <trkpt lat="42.89971" lon="0.94944">
        <ele>1691.1</ele>
        <time>2017-06-11T10:39:26Z</time>
      </trkpt>
      <trkpt lat="42.8997" lon="0.9493">
        <ele>1693.5</ele>
        <time>2017-06-11T10:39:41Z</time>
      </trkpt>
      <trkpt lat="42.89969" lon="0.94915">
        <ele>1694.46</ele>
        <time>2017-06-11T10:39:56Z</time>
      </trkpt>
      <trkpt lat="42.89967" lon="0.94902">
        <ele>1697.34</ele>
        <time>2017-06-11T10:40:23Z</time>
      </trkpt>
      <trkpt lat="42.8997" lon="0.94891">
        <ele>1698.31</ele>
        <time>2017-06-11T10:43:17Z</time>
      </trkpt>
      <trkpt lat="42.89974" lon="0.94879">
        <ele>1698.79</ele>
        <time>2017-06-11T10:43:38Z</time>
      </trkpt>
      <trkpt lat="42.89974" lon="0.94866">
        <ele>1698.31</ele>
        <time>2017-06-11T10:43:54Z</time>
      </trkpt>
      <trkpt lat="42.89975" lon="0.94853">
        <ele>1698.79</ele>
        <time>2017-06-11T10:44:20Z</time>
      </trkpt>
      <trkpt lat="42.89977" lon="0.9484">
        <ele>1700.71</ele>
        <time>2017-06-11T10:44:43Z</time>
      </trkpt>
      <trkpt lat="42.89979" lon="0.94825">
        <ele>1701.67</ele>
        <time>2017-06-11T10:45:08Z</time>
      </trkpt>
      <trkpt lat="42.8998" lon="0.94813">
        <ele>1702.63</ele>
        <time>2017-06-11T10:45:25Z</time>
      </trkpt>
      <trkpt lat="42.89977" lon="0.94803">
        <ele>1703.11</ele>
        <time>2017-06-11T10:45:41Z</time>
      </trkpt>
      <trkpt lat="42.89974" lon="0.94789">
        <ele>1702.15</ele>
        <time>2017-06-11T10:46:07Z</time>
      </trkpt>
      <trkpt lat="42.89971" lon="0.94775">
        <ele>1702.15</ele>
        <time>2017-06-11T10:46:28Z</time>
      </trkpt>
      <trkpt lat="42.89968" lon="0.94764">
        <ele>1703.11</ele>
        <time>2017-06-11T10:46:48Z</time>
      </trkpt>
      <trkpt lat="42.89966" lon="0.94752">
        <ele>1700.71</ele>
        <time>2017-06-11T10:47:04Z</time>
      </trkpt>
      <trkpt lat="42.89964" lon="0.9474">
        <ele>1698.79</ele>
        <time>2017-06-11T10:47:23Z</time>
      </trkpt>
      <trkpt lat="42.89963" lon="0.94727">
        <ele>1699.75</ele>
        <time>2017-06-11T10:47:38Z</time>
      </trkpt>
      <trkpt lat="42.89962" lon="0.94714">
        <ele>1700.71</ele>
        <time>2017-06-11T10:48:00Z</time>
      </trkpt>
      <trkpt lat="42.89961" lon="0.94702">
        <ele>1700.71</ele>
        <time>2017-06-11T10:48:42Z</time>
      </trkpt>
      <trkpt lat="42.89962" lon="0.9469">
        <ele>1702.15</ele>
        <time>2017-06-11T10:49:01Z</time>
      </trkpt>
      <trkpt lat="42.89963" lon="0.94677">
        <ele>1703.59</ele>
        <time>2017-06-11T10:49:16Z</time>
      </trkpt>
      <trkpt lat="42.89963" lon="0.94663">
        <ele>1703.59</ele>
        <time>2017-06-11T10:49:30Z</time>
      </trkpt>
      <trkpt lat="42.89962" lon="0.94651">
        <ele>1703.59</ele>
        <time>2017-06-11T10:49:50Z</time>
      </trkpt>
      <trkpt lat="42.89957" lon="0.9464">
        <ele>1703.59</ele>
        <time>2017-06-11T10:50:04Z</time>
      </trkpt>
      <trkpt lat="42.89955" lon="0.94626">
        <ele>1704.07</ele>
        <time>2017-06-11T10:50:22Z</time>
      </trkpt>
      <trkpt lat="42.89949" lon="0.94614">
        <ele>1705.52</ele>
        <time>2017-06-11T10:50:38Z</time>
      </trkpt>
      <trkpt lat="42.89946" lon="0.94601">
        <ele>1705.52</ele>
        <time>2017-06-11T10:50:56Z</time>
      </trkpt>
      <trkpt lat="42.89945" lon="0.94588">
        <ele>1704.55</ele>
        <time>2017-06-11T10:51:11Z</time>
      </trkpt>
      <trkpt lat="42.89947" lon="0.94577">
        <ele>1708.88</ele>
        <time>2017-06-11T10:51:39Z</time>
      </trkpt>
      <trkpt lat="42.8995" lon="0.94565">
        <ele>1709.36</ele>
        <time>2017-06-11T10:52:03Z</time>
      </trkpt>
      <trkpt lat="42.89949" lon="0.9455">
        <ele>1707.44</ele>
        <time>2017-06-11T10:52:25Z</time>
      </trkpt>
      <trkpt lat="42.89951" lon="0.9454">
        <ele>1706.48</ele>
        <time>2017-06-11T10:56:46Z</time>
      </trkpt>
      <trkpt lat="42.89947" lon="0.9453">
        <ele>1702.63</ele>
        <time>2017-06-11T10:57:24Z</time>
      </trkpt>
      <trkpt lat="42.89951" lon="0.94516">
        <ele>1701.67</ele>
        <time>2017-06-11T10:57:34Z</time>
      </trkpt>
      <trkpt lat="42.89953" lon="0.94503">
        <ele>1700.71</ele>
        <time>2017-06-11T10:57:44Z</time>
      </trkpt>
      <trkpt lat="42.89954" lon="0.9449">
        <ele>1701.67</ele>
        <time>2017-06-11T10:57:55Z</time>
      </trkpt>
      <trkpt lat="42.89953" lon="0.94481">
        <ele>1705.04</ele>
        <time>2017-06-11T10:58:13Z</time>
      </trkpt>
      <trkpt lat="42.89951" lon="0.94466">
        <ele>1704.07</ele>
        <time>2017-06-11T10:58:28Z</time>
      </trkpt>
      <trkpt lat="42.89951" lon="0.94453">
        <ele>1703.59</ele>
        <time>2017-06-11T10:58:40Z</time>
      </trkpt>
      <trkpt lat="42.89952" lon="0.9444">
        <ele>1706.48</ele>
        <time>2017-06-11T10:58:55Z</time>
      </trkpt>
      <trkpt lat="42.89951" lon="0.94428">
        <ele>1706.96</ele>
        <time>2017-06-11T10:59:10Z</time>
      </trkpt>
      <trkpt lat="42.89948" lon="0.94413">
        <ele>1708.4</ele>
        <time>2017-06-11T10:59:28Z</time>
      </trkpt>
      <trkpt lat="42.8995" lon="0.94402">
        <ele>1710.8</ele>
        <time>2017-06-11T10:59:47Z</time>
      </trkpt>
      <trkpt lat="42.89949" lon="0.9439">
        <ele>1712.25</ele>
        <time>2017-06-11T11:00:03Z</time>
      </trkpt>
      <trkpt lat="42.89947" lon="0.94379">
        <ele>1711.76</ele>
        <time>2017-06-11T11:00:17Z</time>
      </trkpt>
      <trkpt lat="42.89946" lon="0.94363">
        <ele>1715.61</ele>
        <time>2017-06-11T11:00:53Z</time>
      </trkpt>
      <trkpt lat="42.89946" lon="0.94351">
        <ele>1719.46</ele>
        <time>2017-06-11T11:01:31Z</time>
      </trkpt>
      <trkpt lat="42.89945" lon="0.94339">
        <ele>1719.46</ele>
        <time>2017-06-11T11:01:47Z</time>
      </trkpt>
      <trkpt lat="42.89943" lon="0.94325">
        <ele>1719.94</ele>
        <time>2017-06-11T11:02:13Z</time>
      </trkpt>
      <trkpt lat="42.89946" lon="0.94313">
        <ele>1718.97</ele>
        <time>2017-06-11T11:02:25Z</time>
      </trkpt>
      <trkpt lat="42.89947" lon="0.94306">
        <ele>1717.53</ele>
        <time>2017-06-11T11:02:42Z</time>
      </trkpt>
      <trkpt lat="42.89943" lon="0.94317">
        <ele>1719.46</ele>
        <time>2017-06-11T11:02:58Z</time>
      </trkpt>
      <trkpt lat="42.89939" lon="0.94317">
        <ele>1718.01</ele>
        <time>2017-06-11T11:54:34Z</time>
      </trkpt>
      <trkpt lat="42.89928" lon="0.94313">
        <ele>1717.53</ele>
        <time>2017-06-11T11:56:02Z</time>
      </trkpt>
      <trkpt lat="42.89921" lon="0.94306">
        <ele>1716.09</ele>
        <time>2017-06-11T11:56:14Z</time>
      </trkpt>
      <trkpt lat="42.89914" lon="0.94299">
        <ele>1711.28</ele>
        <time>2017-06-11T11:56:31Z</time>
      </trkpt>
      <trkpt lat="42.89908" lon="0.94291">
        <ele>1708.88</ele>
        <time>2017-06-11T11:56:45Z</time>
      </trkpt>
      <trkpt lat="42.89902" lon="0.94284">
        <ele>1706.48</ele>
        <time>2017-06-11T11:57:01Z</time>
      </trkpt>
      <trkpt lat="42.89895" lon="0.94282">
        <ele>1701.19</ele>
        <time>2017-06-11T11:57:19Z</time>
      </trkpt>
      <trkpt lat="42.89888" lon="0.94278">
        <ele>1696.86</ele>
        <time>2017-06-11T11:57:37Z</time>
      </trkpt>
      <trkpt lat="42.89881" lon="0.9427">
        <ele>1693.02</ele>
        <time>2017-06-11T11:57:52Z</time>
      </trkpt>
      <trkpt lat="42.89874" lon="0.94261">
        <ele>1690.14</ele>
        <time>2017-06-11T11:58:04Z</time>
      </trkpt>
      <trkpt lat="42.89867" lon="0.94256">
        <ele>1685.81</ele>
        <time>2017-06-11T11:58:19Z</time>
      </trkpt>
      <trkpt lat="42.89859" lon="0.94253">
        <ele>1682.44</ele>
        <time>2017-06-11T11:58:33Z</time>
      </trkpt>
      <trkpt lat="42.89853" lon="0.94248">
        <ele>1679.08</ele>
        <time>2017-06-11T11:58:49Z</time>
      </trkpt>
      <trkpt lat="42.89847" lon="0.94244">
        <ele>1675.72</ele>
        <time>2017-06-11T11:59:08Z</time>
      </trkpt>
      <trkpt lat="42.89841" lon="0.94236">
        <ele>1670.91</ele>
        <time>2017-06-11T11:59:26Z</time>
      </trkpt>
      <trkpt lat="42.89833" lon="0.94237">
        <ele>1665.62</ele>
        <time>2017-06-11T11:59:42Z</time>
      </trkpt>
      <trkpt lat="42.8983" lon="0.94225">
        <ele>1661.78</ele>
        <time>2017-06-11T11:59:57Z</time>
      </trkpt>
      <trkpt lat="42.89821" lon="0.94225">
        <ele>1656.49</ele>
        <time>2017-06-11T12:00:14Z</time>
      </trkpt>
      <trkpt lat="42.89813" lon="0.94221">
        <ele>1652.16</ele>
        <time>2017-06-11T12:00:30Z</time>
      </trkpt>
      <trkpt lat="42.89806" lon="0.94221">
        <ele>1647.84</ele>
        <time>2017-06-11T12:00:48Z</time>
      </trkpt>
      <trkpt lat="42.898" lon="0.94219">
        <ele>1643.51</ele>
        <time>2017-06-11T12:01:04Z</time>
      </trkpt>
      <trkpt lat="42.89795" lon="0.94206">
        <ele>1639.19</ele>
        <time>2017-06-11T12:01:26Z</time>
      </trkpt>
      <trkpt lat="42.89788" lon="0.94201">
        <ele>1633.42</ele>
        <time>2017-06-11T12:01:49Z</time>
      </trkpt>
      <trkpt lat="42.8978" lon="0.94205">
        <ele>1628.61</ele>
        <time>2017-06-11T12:02:07Z</time>
      </trkpt>
      <trkpt lat="42.89774" lon="0.94198">
        <ele>1623.8</ele>
        <time>2017-06-11T12:02:26Z</time>
      </trkpt>
      <trkpt lat="42.89767" lon="0.94189">
        <ele>1619</ele>
        <time>2017-06-11T12:02:46Z</time>
      </trkpt>
      <trkpt lat="42.89761" lon="0.94189">
        <ele>1614.19</ele>
        <time>2017-06-11T12:03:08Z</time>
      </trkpt>
      <trkpt lat="42.89753" lon="0.94191">
        <ele>1609.38</ele>
        <time>2017-06-11T12:03:28Z</time>
      </trkpt>
      <trkpt lat="42.89745" lon="0.94181">
        <ele>1603.14</ele>
        <time>2017-06-11T12:03:51Z</time>
      </trkpt>
      <trkpt lat="42.8974" lon="0.94176">
        <ele>1599.29</ele>
        <time>2017-06-11T12:04:11Z</time>
      </trkpt>
      <trkpt lat="42.89732" lon="0.9417">
        <ele>1593.52</ele>
        <time>2017-06-11T12:04:44Z</time>
      </trkpt>
      <trkpt lat="42.89725" lon="0.94167">
        <ele>1588.72</ele>
        <time>2017-06-11T12:05:33Z</time>
      </trkpt>
      <trkpt lat="42.89716" lon="0.94172">
        <ele>1584.87</ele>
        <time>2017-06-11T12:05:49Z</time>
      </trkpt>
      <trkpt lat="42.89709" lon="0.94176">
        <ele>1580.54</ele>
        <time>2017-06-11T12:06:09Z</time>
      </trkpt>
      <trkpt lat="42.897" lon="0.94187">
        <ele>1577.66</ele>
        <time>2017-06-11T12:06:22Z</time>
      </trkpt>
      <trkpt lat="42.89692" lon="0.94191">
        <ele>1574.78</ele>
        <time>2017-06-11T12:06:36Z</time>
      </trkpt>
      <trkpt lat="42.89682" lon="0.94189">
        <ele>1571.41</ele>
        <time>2017-06-11T12:06:50Z</time>
      </trkpt>
      <trkpt lat="42.89674" lon="0.9418">
        <ele>1568.05</ele>
        <time>2017-06-11T12:07:04Z</time>
      </trkpt>
      <trkpt lat="42.89667" lon="0.94176">
        <ele>1565.16</ele>
        <time>2017-06-11T12:07:21Z</time>
      </trkpt>
      <trkpt lat="42.89664" lon="0.94165">
        <ele>1562.76</ele>
        <time>2017-06-11T12:08:09Z</time>
      </trkpt>
      <trkpt lat="42.89656" lon="0.94171">
        <ele>1561.8</ele>
        <time>2017-06-11T12:09:22Z</time>
      </trkpt>
      <trkpt lat="42.89646" lon="0.94175">
        <ele>1561.8</ele>
        <time>2017-06-11T12:09:33Z</time>
      </trkpt>
      <trkpt lat="42.89639" lon="0.94183">
        <ele>1560.84</ele>
        <time>2017-06-11T12:09:42Z</time>
      </trkpt>
      <trkpt lat="42.89634" lon="0.94193">
        <ele>1561.8</ele>
        <time>2017-06-11T12:09:52Z</time>
      </trkpt>
      <trkpt lat="42.89627" lon="0.942">
        <ele>1561.32</ele>
        <time>2017-06-11T12:10:02Z</time>
      </trkpt>
      <trkpt lat="42.89624" lon="0.94209">
        <ele>1559.4</ele>
        <time>2017-06-11T12:10:15Z</time>
      </trkpt>
      <trkpt lat="42.89623" lon="0.9422">
        <ele>1556.03</ele>
        <time>2017-06-11T12:10:30Z</time>
      </trkpt>
      <trkpt lat="42.89624" lon="0.94234">
        <ele>1553.63</ele>
        <time>2017-06-11T12:10:44Z</time>
      </trkpt>
      <trkpt lat="42.89625" lon="0.94248">
        <ele>1551.22</ele>
        <time>2017-06-11T12:10:59Z</time>
      </trkpt>
      <trkpt lat="42.89624" lon="0.94262">
        <ele>1546.9</ele>
        <time>2017-06-11T12:11:13Z</time>
      </trkpt>
      <trkpt lat="42.89623" lon="0.94277">
        <ele>1543.05</ele>
        <time>2017-06-11T12:11:27Z</time>
      </trkpt>
      <trkpt lat="42.89621" lon="0.9429">
        <ele>1539.69</ele>
        <time>2017-06-11T12:11:40Z</time>
      </trkpt>
      <trkpt lat="42.89619" lon="0.94302">
        <ele>1536.8</ele>
        <time>2017-06-11T12:11:50Z</time>
      </trkpt>
      <trkpt lat="42.89622" lon="0.94316">
        <ele>1533.44</ele>
        <time>2017-06-11T12:12:03Z</time>
      </trkpt>
      <trkpt lat="42.89626" lon="0.94328">
        <ele>1531.04</ele>
        <time>2017-06-11T12:12:15Z</time>
      </trkpt>
      <trkpt lat="42.89631" lon="0.94342">
        <ele>1528.15</ele>
        <time>2017-06-11T12:12:28Z</time>
      </trkpt>
      <trkpt lat="42.89631" lon="0.94355">
        <ele>1525.75</ele>
        <time>2017-06-11T12:12:41Z</time>
      </trkpt>
      <trkpt lat="42.89632" lon="0.94369">
        <ele>1522.87</ele>
        <time>2017-06-11T12:12:53Z</time>
      </trkpt>
      <trkpt lat="42.89631" lon="0.94384">
        <ele>1519.98</ele>
        <time>2017-06-11T12:13:06Z</time>
      </trkpt>
      <trkpt lat="42.89627" lon="0.94395">
        <ele>1517.1</ele>
        <time>2017-06-11T12:13:21Z</time>
      </trkpt>
      <trkpt lat="42.89626" lon="0.94407">
        <ele>1514.21</ele>
        <time>2017-06-11T12:13:33Z</time>
      </trkpt>
      <trkpt lat="42.89621" lon="0.94417">
        <ele>1511.33</ele>
        <time>2017-06-11T12:13:42Z</time>
      </trkpt>
      <trkpt lat="42.89619" lon="0.94429">
        <ele>1508.93</ele>
        <time>2017-06-11T12:13:52Z</time>
      </trkpt>
      <trkpt lat="42.89617" lon="0.94443">
        <ele>1505.56</ele>
        <time>2017-06-11T12:14:05Z</time>
      </trkpt>
      <trkpt lat="42.89613" lon="0.94454">
        <ele>1501.72</ele>
        <time>2017-06-11T12:14:21Z</time>
      </trkpt>
      <trkpt lat="42.89612" lon="0.94469">
        <ele>1498.83</ele>
        <time>2017-06-11T12:14:34Z</time>
      </trkpt>
      <trkpt lat="42.89612" lon="0.94484">
        <ele>1496.91</ele>
        <time>2017-06-11T12:14:48Z</time>
      </trkpt>
      <trkpt lat="42.89613" lon="0.94501">
        <ele>1495.47</ele>
        <time>2017-06-11T12:15:16Z</time>
      </trkpt>
      <trkpt lat="42.89609" lon="0.94515">
        <ele>1493.06</ele>
        <time>2017-06-11T12:15:34Z</time>
      </trkpt>
      <trkpt lat="42.8961" lon="0.94532">
        <ele>1493.06</ele>
        <time>2017-06-11T12:15:49Z</time>
      </trkpt>
      <trkpt lat="42.89608" lon="0.94539">
        <ele>1491.62</ele>
        <time>2017-06-11T12:16:10Z</time>
      </trkpt>
      <trkpt lat="42.89602" lon="0.94548">
        <ele>1488.26</ele>
        <time>2017-06-11T12:16:28Z</time>
      </trkpt>
      <trkpt lat="42.89594" lon="0.94561">
        <ele>1484.41</ele>
        <time>2017-06-11T12:16:43Z</time>
      </trkpt>
      <trkpt lat="42.89589" lon="0.94577">
        <ele>1481.05</ele>
        <time>2017-06-11T12:16:56Z</time>
      </trkpt>
      <trkpt lat="42.89582" lon="0.94593">
        <ele>1477.2</ele>
        <time>2017-06-11T12:17:11Z</time>
      </trkpt>
      <trkpt lat="42.89576" lon="0.94612">
        <ele>1473.84</ele>
        <time>2017-06-11T12:17:29Z</time>
      </trkpt>
      <trkpt lat="42.89569" lon="0.9463">
        <ele>1472.4</ele>
        <time>2017-06-11T12:17:41Z</time>
      </trkpt>
      <trkpt lat="42.8956" lon="0.94645">
        <ele>1469.51</ele>
        <time>2017-06-11T12:17:55Z</time>
      </trkpt>
      <trkpt lat="42.8955" lon="0.94661">
        <ele>1467.11</ele>
        <time>2017-06-11T12:18:08Z</time>
      </trkpt>
      <trkpt lat="42.8954" lon="0.94674">
        <ele>1466.15</ele>
        <time>2017-06-11T12:18:22Z</time>
      </trkpt>
      <trkpt lat="42.89532" lon="0.94689">
        <ele>1465.67</ele>
        <time>2017-06-11T12:18:37Z</time>
      </trkpt>
      <trkpt lat="42.89524" lon="0.94703">
        <ele>1464.23</ele>
        <time>2017-06-11T12:18:49Z</time>
      </trkpt>
      <trkpt lat="42.89518" lon="0.94716">
        <ele>1462.78</ele>
        <time>2017-06-11T12:18:59Z</time>
      </trkpt>
      <trkpt lat="42.89512" lon="0.94733">
        <ele>1460.86</ele>
        <time>2017-06-11T12:19:11Z</time>
      </trkpt>
      <trkpt lat="42.89506" lon="0.94747">
        <ele>1459.9</ele>
        <time>2017-06-11T12:19:22Z</time>
      </trkpt>
      <trkpt lat="42.89501" lon="0.94763">
        <ele>1458.94</ele>
        <time>2017-06-11T12:19:35Z</time>
      </trkpt>
      <trkpt lat="42.89495" lon="0.9478">
        <ele>1458.46</ele>
        <time>2017-06-11T12:19:50Z</time>
      </trkpt>
      <trkpt lat="42.89495" lon="0.94796">
        <ele>1458.46</ele>
        <time>2017-06-11T12:20:06Z</time>
      </trkpt>
      <trkpt lat="42.89487" lon="0.94808">
        <ele>1454.61</ele>
        <time>2017-06-11T12:23:29Z</time>
      </trkpt>
      <trkpt lat="42.89485" lon="0.9481">
        <ele>1452.21</ele>
        <time>2017-06-11T12:33:35Z</time>
      </trkpt>
      <trkpt lat="42.89484" lon="0.94827">
        <ele>1450.77</ele>
        <time>2017-06-11T12:33:56Z</time>
      </trkpt>
      <trkpt lat="42.89487" lon="0.9485">
        <ele>1446.92</ele>
        <time>2017-06-11T12:34:21Z</time>
      </trkpt>
      <trkpt lat="42.89489" lon="0.94867">
        <ele>1443.56</ele>
        <time>2017-06-11T12:34:38Z</time>
      </trkpt>
      <trkpt lat="42.89491" lon="0.9488">
        <ele>1440.67</ele>
        <time>2017-06-11T12:34:55Z</time>
      </trkpt>
      <trkpt lat="42.8949" lon="0.94904">
        <ele>1436.83</ele>
        <time>2017-06-11T12:35:20Z</time>
      </trkpt>
      <trkpt lat="42.89471" lon="0.94939">
        <ele>1430.58</ele>
        <time>2017-06-11T12:35:53Z</time>
      </trkpt>
      <trkpt lat="42.89464" lon="0.94967">
        <ele>1426.73</ele>
        <time>2017-06-11T12:36:15Z</time>
      </trkpt>
      <trkpt lat="42.89451" lon="0.94985">
        <ele>1422.41</ele>
        <time>2017-06-11T12:36:38Z</time>
      </trkpt>
      <trkpt lat="42.89442" lon="0.95002">
        <ele>1417.12</ele>
        <time>2017-06-11T12:36:58Z</time>
      </trkpt>
      <trkpt lat="42.89436" lon="0.95018">
        <ele>1414.24</ele>
        <time>2017-06-11T12:37:13Z</time>
      </trkpt>
      <trkpt lat="42.89434" lon="0.95035">
        <ele>1411.35</ele>
        <time>2017-06-11T12:37:30Z</time>
      </trkpt>
      <trkpt lat="42.89434" lon="0.95055">
        <ele>1407.99</ele>
        <time>2017-06-11T12:37:48Z</time>
      </trkpt>
      <trkpt lat="42.89436" lon="0.95082">
        <ele>1403.18</ele>
        <time>2017-06-11T12:38:11Z</time>
      </trkpt>
      <trkpt lat="42.89438" lon="0.95115">
        <ele>1396.45</ele>
        <time>2017-06-11T12:38:39Z</time>
      </trkpt>
      <trkpt lat="42.8944" lon="0.95148">
        <ele>1391.17</ele>
        <time>2017-06-11T12:39:08Z</time>
      </trkpt>
      <trkpt lat="42.89446" lon="0.95188">
        <ele>1385.4</ele>
        <time>2017-06-11T12:39:38Z</time>
      </trkpt>
      <trkpt lat="42.89452" lon="0.95225">
        <ele>1379.15</ele>
        <time>2017-06-11T12:40:10Z</time>
      </trkpt>
      <trkpt lat="42.89457" lon="0.95252">
        <ele>1373.86</ele>
        <time>2017-06-11T12:40:32Z</time>
      </trkpt>
      <trkpt lat="42.89459" lon="0.9528">
        <ele>1366.65</ele>
        <time>2017-06-11T12:41:08Z</time>
      </trkpt>
      <trkpt lat="42.89467" lon="0.95303">
        <ele>1362.33</ele>
        <time>2017-06-11T12:41:52Z</time>
      </trkpt>
      <trkpt lat="42.89475" lon="0.95324">
        <ele>1359.44</ele>
        <time>2017-06-11T12:42:16Z</time>
      </trkpt>
      <trkpt lat="42.89481" lon="0.95352">
        <ele>1356.08</ele>
        <time>2017-06-11T12:42:40Z</time>
      </trkpt>
      <trkpt lat="42.89489" lon="0.95395">
        <ele>1353.67</ele>
        <time>2017-06-11T12:43:02Z</time>
      </trkpt>
      <trkpt lat="42.89491" lon="0.95413">
        <ele>1351.75</ele>
        <time>2017-06-11T12:43:40Z</time>
      </trkpt>
      <trkpt lat="42.89501" lon="0.95419">
        <ele>1353.19</ele>
        <time>2017-06-11T12:43:56Z</time>
      </trkpt>
      <trkpt lat="42.89505" lon="0.95438">
        <ele>1352.23</ele>
        <time>2017-06-11T12:44:14Z</time>
      </trkpt>
      <trkpt lat="42.89503" lon="0.95478">
        <ele>1350.79</ele>
        <time>2017-06-11T12:44:35Z</time>
      </trkpt>
      <trkpt lat="42.89497" lon="0.95503">
        <ele>1345.5</ele>
        <time>2017-06-11T12:44:57Z</time>
      </trkpt>
      <trkpt lat="42.8949" lon="0.95541">
        <ele>1341.66</ele>
        <time>2017-06-11T12:45:25Z</time>
      </trkpt>
      <trkpt lat="42.89478" lon="0.95569">
        <ele>1336.37</ele>
        <time>2017-06-11T12:45:46Z</time>
      </trkpt>
      <trkpt lat="42.89471" lon="0.95606">
        <ele>1332.04</ele>
        <time>2017-06-11T12:46:18Z</time>
      </trkpt>
      <trkpt lat="42.89471" lon="0.95635">
        <ele>1328.68</ele>
        <time>2017-06-11T12:50:35Z</time>
      </trkpt>
      <trkpt lat="42.89483" lon="0.9566">
        <ele>1325.8</ele>
        <time>2017-06-11T12:51:41Z</time>
      </trkpt>
      <trkpt lat="42.89488" lon="0.95678">
        <ele>1325.31</ele>
        <time>2017-06-11T12:52:02Z</time>
      </trkpt>
      <trkpt lat="42.895" lon="0.95696">
        <ele>1324.83</ele>
        <time>2017-06-11T12:52:26Z</time>
      </trkpt>
      <trkpt lat="42.89505" lon="0.95721">
        <ele>1324.83</ele>
        <time>2017-06-11T12:52:50Z</time>
      </trkpt>
      <trkpt lat="42.89509" lon="0.95741">
        <ele>1324.83</ele>
        <time>2017-06-11T12:53:08Z</time>
      </trkpt>
      <trkpt lat="42.89513" lon="0.95761">
        <ele>1324.83</ele>
        <time>2017-06-11T12:53:21Z</time>
      </trkpt>
      <trkpt lat="42.89518" lon="0.95791">
        <ele>1325.8</ele>
        <time>2017-06-11T12:53:47Z</time>
      </trkpt>
      <trkpt lat="42.89525" lon="0.95826">
        <ele>1322.91</ele>
        <time>2017-06-11T12:54:21Z</time>
      </trkpt>
      <trkpt lat="42.89489" lon="0.95869">
        <ele>1309.93</ele>
        <time>2017-06-11T12:55:20Z</time>
      </trkpt>
      <trkpt lat="42.89466" lon="0.95881">
        <ele>1299.36</ele>
        <time>2017-06-11T12:56:06Z</time>
      </trkpt>
      <trkpt lat="42.89461" lon="0.95902">
        <ele>1302.24</ele>
        <time>2017-06-11T12:57:51Z</time>
      </trkpt>
      <trkpt lat="42.89434" lon="0.95933">
        <ele>1295.51</ele>
        <time>2017-06-11T12:58:34Z</time>
      </trkpt>
      <trkpt lat="42.89414" lon="0.95957">
        <ele>1290.23</ele>
        <time>2017-06-11T12:59:22Z</time>
      </trkpt>
      <trkpt lat="42.89385" lon="0.95978">
        <ele>1278.21</ele>
        <time>2017-06-11T13:00:21Z</time>
      </trkpt>
      <trkpt lat="42.89375" lon="0.95995">
        <ele>1271</ele>
        <time>2017-06-11T13:00:49Z</time>
      </trkpt>
      <trkpt lat="42.89359" lon="0.96002">
        <ele>1260.91</ele>
        <time>2017-06-11T13:01:47Z</time>
      </trkpt>
      <trkpt lat="42.89341" lon="0.95988">
        <ele>1246.01</ele>
        <time>2017-06-11T13:04:13Z</time>
      </trkpt>
      <trkpt lat="42.89326" lon="0.96008">
        <ele>1235.43</ele>
        <time>2017-06-11T13:09:27Z</time>
      </trkpt>
      <trkpt lat="42.89321" lon="0.96039">
        <ele>1227.26</ele>
        <time>2017-06-11T13:10:26Z</time>
      </trkpt>
      <trkpt lat="42.89317" lon="0.96064">
        <ele>1220.05</ele>
        <time>2017-06-11T13:11:08Z</time>
      </trkpt>
      <trkpt lat="42.893" lon="0.96083">
        <ele>1203.71</ele>
        <time>2017-06-11T13:13:02Z</time>
      </trkpt>
      <trkpt lat="42.89289" lon="0.96103">
        <ele>1193.13</ele>
        <time>2017-06-11T13:15:43Z</time>
      </trkpt>
      <trkpt lat="42.89286" lon="0.96125">
        <ele>1188.33</ele>
        <time>2017-06-11T13:16:08Z</time>
      </trkpt>
      <trkpt lat="42.89276" lon="0.96167">
        <ele>1180.64</ele>
        <time>2017-06-11T13:16:48Z</time>
      </trkpt>
      <trkpt lat="42.8927" lon="0.96197">
        <ele>1175.35</ele>
        <time>2017-06-11T13:17:16Z</time>
      </trkpt>
      <trkpt lat="42.8926" lon="0.96225">
        <ele>1171.02</ele>
        <time>2017-06-11T13:17:35Z</time>
      </trkpt>
      <trkpt lat="42.89257" lon="0.96262">
        <ele>1164.29</ele>
        <time>2017-06-11T13:18:02Z</time>
      </trkpt>
      <trkpt lat="42.89263" lon="0.96306">
        <ele>1156.12</ele>
        <time>2017-06-11T13:18:35Z</time>
      </trkpt>
      <trkpt lat="42.89264" lon="0.96331">
        <ele>1154.2</ele>
        <time>2017-06-11T13:18:52Z</time>
      </trkpt>
      <trkpt lat="42.89258" lon="0.96362">
        <ele>1149.87</ele>
        <time>2017-06-11T13:19:19Z</time>
      </trkpt>
      <trkpt lat="42.89249" lon="0.9639">
        <ele>1146.51</ele>
        <time>2017-06-11T13:19:48Z</time>
      </trkpt>
      <trkpt lat="42.89245" lon="0.96419">
        <ele>1143.14</ele>
        <time>2017-06-11T13:20:05Z</time>
      </trkpt>
      <trkpt lat="42.89244" lon="0.96452">
        <ele>1140.26</ele>
        <time>2017-06-11T13:20:22Z</time>
      </trkpt>
      <trkpt lat="42.89247" lon="0.96485">
        <ele>1134.49</ele>
        <time>2017-06-11T13:20:49Z</time>
      </trkpt>
      <trkpt lat="42.89243" lon="0.96514">
        <ele>1129.21</ele>
        <time>2017-06-11T13:21:12Z</time>
      </trkpt>
      <trkpt lat="42.89247" lon="0.96536">
        <ele>1127.28</ele>
        <time>2017-06-11T13:21:28Z</time>
      </trkpt>
      <trkpt lat="42.89249" lon="0.96556">
        <ele>1125.84</ele>
        <time>2017-06-11T13:21:40Z</time>
      </trkpt>
      <trkpt lat="42.89252" lon="0.96575">
        <ele>1124.4</ele>
        <time>2017-06-11T13:21:57Z</time>
      </trkpt>
      <trkpt lat="42.89256" lon="0.96599">
        <ele>1124.4</ele>
        <time>2017-06-11T13:22:16Z</time>
      </trkpt>
      <trkpt lat="42.89259" lon="0.96631">
        <ele>1121.52</ele>
        <time>2017-06-11T13:24:03Z</time>
      </trkpt>
      <trkpt lat="42.89266" lon="0.96655">
        <ele>1119.11</ele>
        <time>2017-06-11T13:24:38Z</time>
      </trkpt>
      <trkpt lat="42.89258" lon="0.96671">
        <ele>1119.59</ele>
        <time>2017-06-11T13:25:00Z</time>
      </trkpt>
      <trkpt lat="42.89245" lon="0.96677">
        <ele>1117.19</ele>
        <time>2017-06-11T13:25:19Z</time>
      </trkpt>
      <trkpt lat="42.89236" lon="0.96684">
        <ele>1115.27</ele>
        <time>2017-06-11T13:25:36Z</time>
      </trkpt>
      <trkpt lat="42.89221" lon="0.96696">
        <ele>1109.98</ele>
        <time>2017-06-11T13:26:02Z</time>
      </trkpt>
      <trkpt lat="42.89203" lon="0.9671">
        <ele>1107.58</ele>
        <time>2017-06-11T13:26:23Z</time>
      </trkpt>
      <trkpt lat="42.89185" lon="0.96719">
        <ele>1107.58</ele>
        <time>2017-06-11T13:26:40Z</time>
      </trkpt>
      <trkpt lat="42.89168" lon="0.96728">
        <ele>1106.61</ele>
        <time>2017-06-11T13:27:30Z</time>
      </trkpt>
      <trkpt lat="42.89154" lon="0.9672">
        <ele>1103.73</ele>
        <time>2017-06-11T13:36:34Z</time>
      </trkpt>
      <trkpt lat="42.89143" lon="0.96724">
        <ele>1104.69</ele>
        <time>2017-06-11T13:36:55Z</time>
      </trkpt>
      <trkpt lat="42.89133" lon="0.96711">
        <ele>1104.21</ele>
        <time>2017-06-11T13:37:16Z</time>
      </trkpt>
      <trkpt lat="42.89121" lon="0.96702">
        <ele>1103.73</ele>
        <time>2017-06-11T13:37:35Z</time>
      </trkpt>
      <trkpt lat="42.89114" lon="0.96689">
        <ele>1104.69</ele>
        <time>2017-06-11T13:37:50Z</time>
      </trkpt>
      <trkpt lat="42.89103" lon="0.96684">
        <ele>1098.92</ele>
        <time>2017-06-11T13:38:25Z</time>
      </trkpt>
      <trkpt lat="42.89097" lon="0.96676">
        <ele>1091.23</ele>
        <time>2017-06-11T13:38:59Z</time>
      </trkpt>
      <trkpt lat="42.89081" lon="0.96672">
        <ele>1083.54</ele>
        <time>2017-06-11T13:39:35Z</time>
      </trkpt>
      <trkpt lat="42.89068" lon="0.96683">
        <ele>1080.18</ele>
        <time>2017-06-11T13:40:04Z</time>
      </trkpt>
      <trkpt lat="42.89051" lon="0.96713">
        <ele>1077.29</ele>
        <time>2017-06-11T13:40:41Z</time>
      </trkpt>
      <trkpt lat="42.8903" lon="0.96726">
        <ele>1076.81</ele>
        <time>2017-06-11T13:41:10Z</time>
      </trkpt>
      <trkpt lat="42.89015" lon="0.96723">
        <ele>1076.81</ele>
        <time>2017-06-11T13:41:28Z</time>
      </trkpt>
      <trkpt lat="42.88989" lon="0.96738">
        <ele>1072.01</ele>
        <time>2017-06-11T13:42:00Z</time>
      </trkpt>
      <trkpt lat="42.88969" lon="0.96749">
        <ele>1069.12</ele>
        <time>2017-06-11T13:42:27Z</time>
      </trkpt>
      <trkpt lat="42.8894" lon="0.96758">
        <ele>1063.84</ele>
        <time>2017-06-11T13:42:57Z</time>
      </trkpt>
      <trkpt lat="42.88906" lon="0.96776">
        <ele>1055.67</ele>
        <time>2017-06-11T13:43:48Z</time>
      </trkpt>
      <trkpt lat="42.88896" lon="0.96745">
        <ele>1041.25</ele>
        <time>2017-06-11T13:45:54Z</time>
      </trkpt>
      <trkpt lat="42.88874" lon="0.96748">
        <ele>1031.15</ele>
        <time>2017-06-11T13:46:45Z</time>
      </trkpt>
      <trkpt lat="42.88839" lon="0.96763">
        <ele>1018.17</ele>
        <time>2017-06-11T13:48:02Z</time>
      </trkpt>
      <trkpt lat="42.88832" lon="0.96788">
        <ele>1019.13</ele>
        <time>2017-06-11T13:48:21Z</time>
      </trkpt>
      <trkpt lat="42.88826" lon="0.96808">
        <ele>1020.1</ele>
        <time>2017-06-11T13:48:40Z</time>
      </trkpt>
      <trkpt lat="42.88822" lon="0.9684">
        <ele>1022.98</ele>
        <time>2017-06-11T13:49:10Z</time>
      </trkpt>
      <trkpt lat="42.88818" lon="0.96876">
        <ele>1024.42</ele>
        <time>2017-06-11T13:49:37Z</time>
      </trkpt>
      <trkpt lat="42.88819" lon="0.9691">
        <ele>1027.31</ele>
        <time>2017-06-11T13:51:31Z</time>
      </trkpt>
      <trkpt lat="42.88825" lon="0.9695">
        <ele>1032.59</ele>
        <time>2017-06-11T13:52:09Z</time>
      </trkpt>
      <trkpt lat="42.88817" lon="0.96989">
        <ele>1034.04</ele>
        <time>2017-06-11T13:52:44Z</time>
      </trkpt>
      <trkpt lat="42.88815" lon="0.97024">
        <ele>1033.55</ele>
        <time>2017-06-11T13:53:15Z</time>
      </trkpt>
      <trkpt lat="42.88818" lon="0.97045">
        <ele>1036.44</ele>
        <time>2017-06-11T13:54:54Z</time>
      </trkpt>
      <trkpt lat="42.88815" lon="0.97059">
        <ele>1031.15</ele>
        <time>2017-06-11T13:55:19Z</time>
      </trkpt>
      <trkpt lat="42.88827" lon="0.97078">
        <ele>1032.11</ele>
        <time>2017-06-11T13:55:51Z</time>
      </trkpt>
      <trkpt lat="42.88818" lon="0.97123">
        <ele>1034.52</ele>
        <time>2017-06-11T13:56:45Z</time>
      </trkpt>
      <trkpt lat="42.88804" lon="0.97116">
        <ele>1034.52</ele>
        <time>2017-06-11T13:59:47Z</time>
      </trkpt>
      <trkpt lat="42.88773" lon="0.97143">
        <ele>1036.44</ele>
        <time>2017-06-11T14:00:47Z</time>
      </trkpt>
      <trkpt lat="42.88744" lon="0.97173">
        <ele>1044.61</ele>
        <time>2017-06-11T14:02:51Z</time>
      </trkpt>
      <trkpt lat="42.88728" lon="0.97195">
        <ele>1049.42</ele>
        <time>2017-06-11T14:03:38Z</time>
      </trkpt>
      <trkpt lat="42.88722" lon="0.97227">
        <ele>1055.18</ele>
        <time>2017-06-11T14:04:34Z</time>
      </trkpt>
      <trkpt lat="42.88705" lon="0.9725">
        <ele>1054.7</ele>
        <time>2017-06-11T14:05:58Z</time>
      </trkpt>
      <trkpt lat="42.88686" lon="0.97279">
        <ele>1057.11</ele>
        <time>2017-06-11T14:08:36Z</time>
      </trkpt>
      <trkpt lat="42.88678" lon="0.97317">
        <ele>1057.11</ele>
        <time>2017-06-11T14:09:23Z</time>
      </trkpt>
      <trkpt lat="42.8865" lon="0.97316">
        <ele>1043.65</ele>
        <time>2017-06-11T14:11:56Z</time>
      </trkpt>
      <trkpt lat="42.88637" lon="0.97311">
        <ele>1033.55</ele>
        <time>2017-06-11T14:13:48Z</time>
      </trkpt>
      <trkpt lat="42.88611" lon="0.97288">
        <ele>1019.62</ele>
        <time>2017-06-11T14:16:20Z</time>
      </trkpt>
      <trkpt lat="42.88584" lon="0.9728">
        <ele>1006.16</ele>
        <time>2017-06-11T14:18:51Z</time>
      </trkpt>
      <trkpt lat="42.88565" lon="0.97282">
        <ele>994.14</ele>
        <time>2017-06-11T14:20:07Z</time>
      </trkpt>
      <trkpt lat="42.88547" lon="0.97285">
        <ele>986.93</ele>
        <time>2017-06-11T14:20:46Z</time>
      </trkpt>
      <trkpt lat="42.88542" lon="0.97298">
        <ele>981.16</ele>
        <time>2017-06-11T14:21:22Z</time>
      </trkpt>
      <trkpt lat="42.8854" lon="0.97313">
        <ele>977.8</ele>
        <time>2017-06-11T14:21:45Z</time>
      </trkpt>
      <trkpt lat="42.88536" lon="0.9732">
        <ele>975.39</ele>
        <time>2017-06-11T14:23:50Z</time>
      </trkpt>
      <trkpt lat="42.88527" lon="0.97318">
        <ele>973.47</ele>
        <time>2017-06-11T14:24:07Z</time>
      </trkpt>
      <trkpt lat="42.88521" lon="0.97324">
        <ele>971.07</ele>
        <time>2017-06-11T14:24:21Z</time>
      </trkpt>
      <trkpt lat="42.88521" lon="0.97338">
        <ele>970.11</ele>
        <time>2017-06-11T14:24:33Z</time>
      </trkpt>
      <trkpt lat="42.88519" lon="0.97356">
        <ele>968.67</ele>
        <time>2017-06-11T14:24:45Z</time>
      </trkpt>
      <trkpt lat="42.88518" lon="0.97373">
        <ele>967.22</ele>
        <time>2017-06-11T14:24:58Z</time>
      </trkpt>
      <trkpt lat="42.88518" lon="0.97386">
        <ele>967.22</ele>
        <time>2017-06-11T14:25:10Z</time>
      </trkpt>
      <trkpt lat="42.88506" lon="0.97403">
        <ele>967.22</ele>
        <time>2017-06-11T14:25:27Z</time>
      </trkpt>
      <trkpt lat="42.88498" lon="0.97416">
        <ele>965.3</ele>
        <time>2017-06-11T14:25:39Z</time>
      </trkpt>
      <trkpt lat="42.88485" lon="0.97434">
        <ele>963.86</ele>
        <time>2017-06-11T14:25:53Z</time>
      </trkpt>
      <trkpt lat="42.88481" lon="0.97446">
        <ele>963.38</ele>
        <time>2017-06-11T14:28:06Z</time>
      </trkpt>
      <trkpt lat="42.88469" lon="0.97458">
        <ele>961.46</ele>
        <time>2017-06-11T14:28:22Z</time>
      </trkpt>
      <trkpt lat="42.8846" lon="0.97468">
        <ele>960.98</ele>
        <time>2017-06-11T14:28:32Z</time>
      </trkpt>
      <trkpt lat="42.8845" lon="0.97478">
        <ele>960.49</ele>
        <time>2017-06-11T14:28:44Z</time>
      </trkpt>
      <trkpt lat="42.88438" lon="0.97479">
        <ele>957.13</ele>
        <time>2017-06-11T14:29:00Z</time>
      </trkpt>
      <trkpt lat="42.88439" lon="0.975">
        <ele>954.25</ele>
        <time>2017-06-11T14:29:19Z</time>
      </trkpt>
      <trkpt lat="42.88438" lon="0.97527">
        <ele>947.52</ele>
        <time>2017-06-11T14:30:02Z</time>
      </trkpt>
      <trkpt lat="42.88442" lon="0.97553">
        <ele>945.11</ele>
        <time>2017-06-11T14:30:23Z</time>
      </trkpt>
      <trkpt lat="42.88436" lon="0.97573">
        <ele>945.59</ele>
        <time>2017-06-11T14:30:51Z</time>
      </trkpt>
      <trkpt lat="42.88427" lon="0.97597">
        <ele>943.19</ele>
        <time>2017-06-11T14:31:21Z</time>
      </trkpt>
      <trkpt lat="42.88411" lon="0.9762">
        <ele>941.27</ele>
        <time>2017-06-11T14:31:50Z</time>
      </trkpt>
      <trkpt lat="42.88395" lon="0.97633">
        <ele>939.83</ele>
        <time>2017-06-11T14:32:07Z</time>
      </trkpt>
      <trkpt lat="42.8837" lon="0.97646">
        <ele>935.98</ele>
        <time>2017-06-11T14:32:38Z</time>
      </trkpt>
      <trkpt lat="42.88348" lon="0.97662">
        <ele>932.62</ele>
        <time>2017-06-11T14:33:03Z</time>
      </trkpt>
      <trkpt lat="42.88335" lon="0.97682">
        <ele>931.17</ele>
        <time>2017-06-11T14:33:23Z</time>
      </trkpt>
      <trkpt lat="42.8833" lon="0.9771">
        <ele>931.17</ele>
        <time>2017-06-11T14:33:45Z</time>
      </trkpt>
      <trkpt lat="42.88324" lon="0.97747">
        <ele>930.69</ele>
        <time>2017-06-11T14:34:14Z</time>
      </trkpt>
      <trkpt lat="42.8832" lon="0.97787">
        <ele>929.73</ele>
        <time>2017-06-11T14:34:44Z</time>
      </trkpt>
      <trkpt lat="42.88328" lon="0.97815">
        <ele>926.37</ele>
        <time>2017-06-11T14:35:10Z</time>
      </trkpt>
      <trkpt lat="42.88347" lon="0.97851">
        <ele>924.93</ele>
        <time>2017-06-11T14:35:53Z</time>
      </trkpt>
      <trkpt lat="42.8836" lon="0.97862">
        <ele>925.89</ele>
        <time>2017-06-11T14:36:15Z</time>
      </trkpt>
      <trkpt lat="42.88374" lon="0.97882">
        <ele>928.77</ele>
        <time>2017-06-11T14:36:40Z</time>
      </trkpt>
      <trkpt lat="42.88374" lon="0.97906">
        <ele>931.17</ele>
        <time>2017-06-11T14:37:03Z</time>
      </trkpt>
      <trkpt lat="42.88381" lon="0.97928">
        <ele>932.62</ele>
        <time>2017-06-11T14:37:26Z</time>
      </trkpt>
      <trkpt lat="42.88398" lon="0.97941">
        <ele>934.06</ele>
        <time>2017-06-11T14:37:47Z</time>
      </trkpt>
      <trkpt lat="42.88411" lon="0.97947">
        <ele>935.02</ele>
        <time>2017-06-11T14:38:03Z</time>
      </trkpt>
      <trkpt lat="42.88417" lon="0.97959">
        <ele>935.5</ele>
        <time>2017-06-11T14:38:17Z</time>
      </trkpt>
      <trkpt lat="42.88419" lon="0.97977">
        <ele>936.94</ele>
        <time>2017-06-11T14:38:32Z</time>
      </trkpt>
      <trkpt lat="42.88419" lon="0.97994">
        <ele>938.38</ele>
        <time>2017-06-11T14:38:48Z</time>
      </trkpt>
      <trkpt lat="42.8842" lon="0.98013">
        <ele>937.42</ele>
        <time>2017-06-11T14:39:03Z</time>
      </trkpt>
      <trkpt lat="42.88424" lon="0.98029">
        <ele>935.98</ele>
        <time>2017-06-11T14:39:17Z</time>
      </trkpt>
      <trkpt lat="42.88428" lon="0.98044">
        <ele>935.5</ele>
        <time>2017-06-11T14:39:29Z</time>
      </trkpt>
      <trkpt lat="42.88432" lon="0.98058">
        <ele>935.98</ele>
        <time>2017-06-11T14:39:42Z</time>
      </trkpt>
      <trkpt lat="42.88431" lon="0.98075">
        <ele>936.46</ele>
        <time>2017-06-11T14:39:54Z</time>
      </trkpt>
      <trkpt lat="42.88432" lon="0.98093">
        <ele>936.94</ele>
        <time>2017-06-11T14:40:07Z</time>
      </trkpt>
      <trkpt lat="42.88435" lon="0.98109">
        <ele>935.98</ele>
        <time>2017-06-11T14:40:38Z</time>
      </trkpt>
      <trkpt lat="42.88433" lon="0.98123">
        <ele>936.94</ele>
        <time>2017-06-11T14:40:51Z</time>
      </trkpt>
      <trkpt lat="42.88429" lon="0.98139">
        <ele>937.9</ele>
        <time>2017-06-11T14:41:03Z</time>
      </trkpt>
      <trkpt lat="42.88424" lon="0.98154">
        <ele>937.42</ele>
        <time>2017-06-11T14:41:15Z</time>
      </trkpt>
      <trkpt lat="42.88422" lon="0.98169">
        <ele>937.9</ele>
        <time>2017-06-11T14:41:26Z</time>
      </trkpt>
      <trkpt lat="42.88425" lon="0.98184">
        <ele>938.86</ele>
        <time>2017-06-11T14:41:40Z</time>
      </trkpt>
      <trkpt lat="42.88426" lon="0.982">
        <ele>939.35</ele>
        <time>2017-06-11T14:41:53Z</time>
      </trkpt>
      <trkpt lat="42.88429" lon="0.98217">
        <ele>940.31</ele>
        <time>2017-06-11T14:42:03Z</time>
      </trkpt>
      <trkpt lat="42.88432" lon="0.98231">
        <ele>941.27</ele>
        <time>2017-06-11T14:42:15Z</time>
      </trkpt>
      <trkpt lat="42.88434" lon="0.98243">
        <ele>940.31</ele>
        <time>2017-06-11T14:42:26Z</time>
      </trkpt>
      <trkpt lat="42.88433" lon="0.98256">
        <ele>939.35</ele>
        <time>2017-06-11T14:42:37Z</time>
      </trkpt>
      <trkpt lat="42.88429" lon="0.98271">
        <ele>938.38</ele>
        <time>2017-06-11T14:42:49Z</time>
      </trkpt>
    </trkseg>
  </trk>
</gpx>